<?xml version="1.0" encoding="UTF-8" standalone="no" ?>
<gpx xmlns="http://www.topografix.com/GPX/1/1" xmlns:xsi="http://www.w3.org/2001/XMLSchema-instance" xsi:schemaLocation="http://www.topografix.com/GPX/1/1 http://www.topografix.com/GPX/1/1/gpx.xsd" version="1.1" creator="VisuGPX - https://www.visugpx.com">
  <metadata>
    <name>Nenon - Eclans - Montjeux (aller et retour)</name>
    <desc><![CDATA[Randonnée effectuée le 27 janvier 2020]]></desc>
  </metadata>
  <trk>
    <name><![CDATA[27 janv. 2020 à 09:02:52]]></name>
    <trkseg>
      <trkpt lat="47.12547" lon="5.58533">
        <ele>203</ele>
        <time>2020-01-27T08:02:53Z</time>
      </trkpt>
      <trkpt lat="47.12547" lon="5.58533">
        <ele>203</ele>
        <time>2020-01-27T08:02:54Z</time>
      </trkpt>
      <trkpt lat="47.12544" lon="5.58538">
        <ele>203</ele>
        <time>2020-01-27T08:03:21Z</time>
      </trkpt>
      <trkpt lat="47.12541" lon="5.58545">
        <ele>205</ele>
        <time>2020-01-27T08:03:39Z</time>
      </trkpt>
      <trkpt lat="47.1254" lon="5.58553">
        <ele>207</ele>
        <time>2020-01-27T08:03:45Z</time>
      </trkpt>
      <trkpt lat="47.12536" lon="5.58556">
        <ele>207</ele>
        <time>2020-01-27T08:03:51Z</time>
      </trkpt>
      <trkpt lat="47.12528" lon="5.58555">
        <ele>210</ele>
        <time>2020-01-27T08:04:03Z</time>
      </trkpt>
      <trkpt lat="47.12523" lon="5.58555">
        <ele>211</ele>
        <time>2020-01-27T08:04:08Z</time>
      </trkpt>
      <trkpt lat="47.12519" lon="5.58554">
        <ele>211</ele>
        <time>2020-01-27T08:04:13Z</time>
      </trkpt>
      <trkpt lat="47.12514" lon="5.58552">
        <ele>210</ele>
        <time>2020-01-27T08:04:18Z</time>
      </trkpt>
      <trkpt lat="47.12509" lon="5.58549">
        <ele>212</ele>
        <time>2020-01-27T08:04:23Z</time>
      </trkpt>
      <trkpt lat="47.12499" lon="5.58547">
        <ele>212</ele>
        <time>2020-01-27T08:04:31Z</time>
      </trkpt>
      <trkpt lat="47.12496" lon="5.58553">
        <ele>211</ele>
        <time>2020-01-27T08:04:36Z</time>
      </trkpt>
      <trkpt lat="47.12494" lon="5.5856">
        <ele>211</ele>
        <time>2020-01-27T08:04:41Z</time>
      </trkpt>
      <trkpt lat="47.12487" lon="5.58572">
        <ele>212</ele>
        <time>2020-01-27T08:04:50Z</time>
      </trkpt>
      <trkpt lat="47.12481" lon="5.58583">
        <ele>212</ele>
        <time>2020-01-27T08:04:58Z</time>
      </trkpt>
      <trkpt lat="47.12453" lon="5.58627">
        <ele>210</ele>
        <time>2020-01-27T08:05:30Z</time>
      </trkpt>
      <trkpt lat="47.1245" lon="5.58631">
        <ele>210</ele>
        <time>2020-01-27T08:05:34Z</time>
      </trkpt>
      <trkpt lat="47.1244" lon="5.58646">
        <ele>210</ele>
        <time>2020-01-27T08:05:46Z</time>
      </trkpt>
      <trkpt lat="47.12436" lon="5.58651">
        <ele>210</ele>
        <time>2020-01-27T08:05:50Z</time>
      </trkpt>
      <trkpt lat="47.12431" lon="5.58655">
        <ele>211</ele>
        <time>2020-01-27T08:05:54Z</time>
      </trkpt>
      <trkpt lat="47.12427" lon="5.58658">
        <ele>211</ele>
        <time>2020-01-27T08:05:58Z</time>
      </trkpt>
      <trkpt lat="47.12422" lon="5.5866">
        <ele>210</ele>
        <time>2020-01-27T08:06:02Z</time>
      </trkpt>
      <trkpt lat="47.12418" lon="5.58662">
        <ele>211</ele>
        <time>2020-01-27T08:06:06Z</time>
      </trkpt>
      <trkpt lat="47.12402" lon="5.5866">
        <ele>210</ele>
        <time>2020-01-27T08:06:18Z</time>
      </trkpt>
      <trkpt lat="47.12397" lon="5.58658">
        <ele>210</ele>
        <time>2020-01-27T08:06:23Z</time>
      </trkpt>
      <trkpt lat="47.12382" lon="5.58657">
        <ele>209</ele>
        <time>2020-01-27T08:06:36Z</time>
      </trkpt>
      <trkpt lat="47.12368" lon="5.58654">
        <ele>210</ele>
        <time>2020-01-27T08:06:48Z</time>
      </trkpt>
      <trkpt lat="47.12363" lon="5.58652">
        <ele>210</ele>
        <time>2020-01-27T08:06:53Z</time>
      </trkpt>
      <trkpt lat="47.12356" lon="5.58652">
        <ele>210</ele>
        <time>2020-01-27T08:07:00Z</time>
      </trkpt>
      <trkpt lat="47.12346" lon="5.58648">
        <ele>212</ele>
        <time>2020-01-27T08:07:07Z</time>
      </trkpt>
      <trkpt lat="47.12341" lon="5.58648">
        <ele>212</ele>
        <time>2020-01-27T08:07:11Z</time>
      </trkpt>
      <trkpt lat="47.12336" lon="5.58646">
        <ele>213</ele>
        <time>2020-01-27T08:07:15Z</time>
      </trkpt>
      <trkpt lat="47.12315" lon="5.58644">
        <ele>214</ele>
        <time>2020-01-27T08:07:33Z</time>
      </trkpt>
      <trkpt lat="47.12311" lon="5.58645">
        <ele>216</ele>
        <time>2020-01-27T08:07:37Z</time>
      </trkpt>
      <trkpt lat="47.123" lon="5.58647">
        <ele>215</ele>
        <time>2020-01-27T08:07:46Z</time>
      </trkpt>
      <trkpt lat="47.12289" lon="5.58649">
        <ele>215</ele>
        <time>2020-01-27T08:07:54Z</time>
      </trkpt>
      <trkpt lat="47.12284" lon="5.58651">
        <ele>215</ele>
        <time>2020-01-27T08:07:58Z</time>
      </trkpt>
      <trkpt lat="47.1227" lon="5.58656">
        <ele>216</ele>
        <time>2020-01-27T08:08:13Z</time>
      </trkpt>
      <trkpt lat="47.12254" lon="5.5867">
        <ele>216</ele>
        <time>2020-01-27T08:08:30Z</time>
      </trkpt>
      <trkpt lat="47.1225" lon="5.58674">
        <ele>216</ele>
        <time>2020-01-27T08:08:34Z</time>
      </trkpt>
      <trkpt lat="47.12246" lon="5.58676">
        <ele>215</ele>
        <time>2020-01-27T08:08:38Z</time>
      </trkpt>
      <trkpt lat="47.1224" lon="5.5868">
        <ele>216</ele>
        <time>2020-01-27T08:08:42Z</time>
      </trkpt>
      <trkpt lat="47.12228" lon="5.58692">
        <ele>216</ele>
        <time>2020-01-27T08:08:52Z</time>
      </trkpt>
      <trkpt lat="47.12225" lon="5.58698">
        <ele>216</ele>
        <time>2020-01-27T08:08:56Z</time>
      </trkpt>
      <trkpt lat="47.12222" lon="5.58702">
        <ele>217</ele>
        <time>2020-01-27T08:09:00Z</time>
      </trkpt>
      <trkpt lat="47.12205" lon="5.5872">
        <ele>218</ele>
        <time>2020-01-27T08:09:18Z</time>
      </trkpt>
      <trkpt lat="47.12202" lon="5.58726">
        <ele>218</ele>
        <time>2020-01-27T08:09:22Z</time>
      </trkpt>
      <trkpt lat="47.12199" lon="5.58731">
        <ele>218</ele>
        <time>2020-01-27T08:09:26Z</time>
      </trkpt>
      <trkpt lat="47.12198" lon="5.58738">
        <ele>219</ele>
        <time>2020-01-27T08:09:30Z</time>
      </trkpt>
      <trkpt lat="47.12198" lon="5.58745">
        <ele>219</ele>
        <time>2020-01-27T08:09:34Z</time>
      </trkpt>
      <trkpt lat="47.12207" lon="5.58787">
        <ele>223</ele>
        <time>2020-01-27T08:10:02Z</time>
      </trkpt>
      <trkpt lat="47.12208" lon="5.58803">
        <ele>223</ele>
        <time>2020-01-27T08:10:12Z</time>
      </trkpt>
      <trkpt lat="47.12209" lon="5.5881">
        <ele>223</ele>
        <time>2020-01-27T08:10:17Z</time>
      </trkpt>
      <trkpt lat="47.1221" lon="5.58825">
        <ele>224</ele>
        <time>2020-01-27T08:10:27Z</time>
      </trkpt>
      <trkpt lat="47.12211" lon="5.58831">
        <ele>225</ele>
        <time>2020-01-27T08:10:32Z</time>
      </trkpt>
      <trkpt lat="47.12212" lon="5.58854">
        <ele>226</ele>
        <time>2020-01-27T08:10:47Z</time>
      </trkpt>
      <trkpt lat="47.12212" lon="5.5886">
        <ele>227</ele>
        <time>2020-01-27T08:10:51Z</time>
      </trkpt>
      <trkpt lat="47.12214" lon="5.58867">
        <ele>227</ele>
        <time>2020-01-27T08:10:56Z</time>
      </trkpt>
      <trkpt lat="47.1222" lon="5.58878">
        <ele>229</ele>
        <time>2020-01-27T08:11:04Z</time>
      </trkpt>
      <trkpt lat="47.12234" lon="5.58901">
        <ele>231</ele>
        <time>2020-01-27T08:11:24Z</time>
      </trkpt>
      <trkpt lat="47.12238" lon="5.58906">
        <ele>230</ele>
        <time>2020-01-27T08:11:29Z</time>
      </trkpt>
      <trkpt lat="47.12247" lon="5.58921">
        <ele>230</ele>
        <time>2020-01-27T08:11:40Z</time>
      </trkpt>
      <trkpt lat="47.12251" lon="5.58927">
        <ele>231</ele>
        <time>2020-01-27T08:11:45Z</time>
      </trkpt>
      <trkpt lat="47.12258" lon="5.58937">
        <ele>231</ele>
        <time>2020-01-27T08:11:53Z</time>
      </trkpt>
      <trkpt lat="47.12268" lon="5.58954">
        <ele>232</ele>
        <time>2020-01-27T08:12:06Z</time>
      </trkpt>
      <trkpt lat="47.1227" lon="5.5896">
        <ele>233</ele>
        <time>2020-01-27T08:12:10Z</time>
      </trkpt>
      <trkpt lat="47.12274" lon="5.58966">
        <ele>233</ele>
        <time>2020-01-27T08:12:15Z</time>
      </trkpt>
      <trkpt lat="47.12281" lon="5.58977">
        <ele>233</ele>
        <time>2020-01-27T08:12:23Z</time>
      </trkpt>
      <trkpt lat="47.12287" lon="5.58989">
        <ele>234</ele>
        <time>2020-01-27T08:12:31Z</time>
      </trkpt>
      <trkpt lat="47.12297" lon="5.59014">
        <ele>233</ele>
        <time>2020-01-27T08:12:47Z</time>
      </trkpt>
      <trkpt lat="47.12298" lon="5.59021">
        <ele>234</ele>
        <time>2020-01-27T08:12:51Z</time>
      </trkpt>
      <trkpt lat="47.12298" lon="5.59037">
        <ele>234</ele>
        <time>2020-01-27T08:12:59Z</time>
      </trkpt>
      <trkpt lat="47.12298" lon="5.59044">
        <ele>234</ele>
        <time>2020-01-27T08:13:03Z</time>
      </trkpt>
      <trkpt lat="47.12299" lon="5.5906">
        <ele>235</ele>
        <time>2020-01-27T08:13:12Z</time>
      </trkpt>
      <trkpt lat="47.12302" lon="5.59073">
        <ele>235</ele>
        <time>2020-01-27T08:13:19Z</time>
      </trkpt>
      <trkpt lat="47.12305" lon="5.59086">
        <ele>235</ele>
        <time>2020-01-27T08:13:26Z</time>
      </trkpt>
      <trkpt lat="47.12306" lon="5.59099">
        <ele>235</ele>
        <time>2020-01-27T08:13:35Z</time>
      </trkpt>
      <trkpt lat="47.12306" lon="5.59143">
        <ele>235</ele>
        <time>2020-01-27T08:14:01Z</time>
      </trkpt>
      <trkpt lat="47.12306" lon="5.59191">
        <ele>239</ele>
        <time>2020-01-27T08:14:31Z</time>
      </trkpt>
      <trkpt lat="47.12305" lon="5.59219">
        <ele>239</ele>
        <time>2020-01-27T08:14:49Z</time>
      </trkpt>
      <trkpt lat="47.12304" lon="5.59235">
        <ele>238</ele>
        <time>2020-01-27T08:14:55Z</time>
      </trkpt>
      <trkpt lat="47.12306" lon="5.59248">
        <ele>237</ele>
        <time>2020-01-27T08:15:00Z</time>
      </trkpt>
      <trkpt lat="47.12311" lon="5.5926">
        <ele>239</ele>
        <time>2020-01-27T08:15:08Z</time>
      </trkpt>
      <trkpt lat="47.12313" lon="5.59283">
        <ele>239</ele>
        <time>2020-01-27T08:15:20Z</time>
      </trkpt>
      <trkpt lat="47.12314" lon="5.59291">
        <ele>240</ele>
        <time>2020-01-27T08:15:24Z</time>
      </trkpt>
      <trkpt lat="47.12321" lon="5.59329">
        <ele>241</ele>
        <time>2020-01-27T08:15:43Z</time>
      </trkpt>
      <trkpt lat="47.12323" lon="5.59335">
        <ele>241</ele>
        <time>2020-01-27T08:15:47Z</time>
      </trkpt>
      <trkpt lat="47.12325" lon="5.59342">
        <ele>241</ele>
        <time>2020-01-27T08:15:51Z</time>
      </trkpt>
      <trkpt lat="47.12327" lon="5.5935">
        <ele>241</ele>
        <time>2020-01-27T08:15:56Z</time>
      </trkpt>
      <trkpt lat="47.12328" lon="5.59366">
        <ele>241</ele>
        <time>2020-01-27T08:16:04Z</time>
      </trkpt>
      <trkpt lat="47.12329" lon="5.59373">
        <ele>241</ele>
        <time>2020-01-27T08:16:08Z</time>
      </trkpt>
      <trkpt lat="47.12332" lon="5.59388">
        <ele>239</ele>
        <time>2020-01-27T08:16:16Z</time>
      </trkpt>
      <trkpt lat="47.12334" lon="5.59403">
        <ele>239</ele>
        <time>2020-01-27T08:16:25Z</time>
      </trkpt>
      <trkpt lat="47.12336" lon="5.5941">
        <ele>239</ele>
        <time>2020-01-27T08:16:29Z</time>
      </trkpt>
      <trkpt lat="47.12338" lon="5.59417">
        <ele>239</ele>
        <time>2020-01-27T08:16:34Z</time>
      </trkpt>
      <trkpt lat="47.12339" lon="5.59424">
        <ele>239</ele>
        <time>2020-01-27T08:16:38Z</time>
      </trkpt>
      <trkpt lat="47.1234" lon="5.59431">
        <ele>238</ele>
        <time>2020-01-27T08:16:43Z</time>
      </trkpt>
      <trkpt lat="47.12342" lon="5.59438">
        <ele>237</ele>
        <time>2020-01-27T08:16:47Z</time>
      </trkpt>
      <trkpt lat="47.12346" lon="5.59456">
        <ele>239</ele>
        <time>2020-01-27T08:16:58Z</time>
      </trkpt>
      <trkpt lat="47.12347" lon="5.5947">
        <ele>241</ele>
        <time>2020-01-27T08:17:07Z</time>
      </trkpt>
      <trkpt lat="47.12349" lon="5.59485">
        <ele>241</ele>
        <time>2020-01-27T08:17:15Z</time>
      </trkpt>
      <trkpt lat="47.12352" lon="5.59499">
        <ele>240</ele>
        <time>2020-01-27T08:17:23Z</time>
      </trkpt>
      <trkpt lat="47.12354" lon="5.59506">
        <ele>240</ele>
        <time>2020-01-27T08:17:27Z</time>
      </trkpt>
      <trkpt lat="47.12361" lon="5.59517">
        <ele>241</ele>
        <time>2020-01-27T08:17:35Z</time>
      </trkpt>
      <trkpt lat="47.12363" lon="5.59524">
        <ele>240</ele>
        <time>2020-01-27T08:17:39Z</time>
      </trkpt>
      <trkpt lat="47.12367" lon="5.59539">
        <ele>241</ele>
        <time>2020-01-27T08:17:49Z</time>
      </trkpt>
      <trkpt lat="47.1237" lon="5.59553">
        <ele>241</ele>
        <time>2020-01-27T08:17:58Z</time>
      </trkpt>
      <trkpt lat="47.12373" lon="5.59567">
        <ele>241</ele>
        <time>2020-01-27T08:18:05Z</time>
      </trkpt>
      <trkpt lat="47.12376" lon="5.59581">
        <ele>241</ele>
        <time>2020-01-27T08:18:11Z</time>
      </trkpt>
      <trkpt lat="47.12379" lon="5.59594">
        <ele>241</ele>
        <time>2020-01-27T08:18:18Z</time>
      </trkpt>
      <trkpt lat="47.12382" lon="5.59622">
        <ele>242</ele>
        <time>2020-01-27T08:18:32Z</time>
      </trkpt>
      <trkpt lat="47.12386" lon="5.59634">
        <ele>242</ele>
        <time>2020-01-27T08:18:40Z</time>
      </trkpt>
      <trkpt lat="47.12389" lon="5.59648">
        <ele>242</ele>
        <time>2020-01-27T08:18:48Z</time>
      </trkpt>
      <trkpt lat="47.12394" lon="5.5966">
        <ele>242</ele>
        <time>2020-01-27T08:18:57Z</time>
      </trkpt>
      <trkpt lat="47.12404" lon="5.59717">
        <ele>240</ele>
        <time>2020-01-27T08:19:28Z</time>
      </trkpt>
      <trkpt lat="47.12416" lon="5.59775">
        <ele>238</ele>
        <time>2020-01-27T08:20:01Z</time>
      </trkpt>
      <trkpt lat="47.12422" lon="5.59816">
        <ele>238</ele>
        <time>2020-01-27T08:20:25Z</time>
      </trkpt>
      <trkpt lat="47.12425" lon="5.59829">
        <ele>237</ele>
        <time>2020-01-27T08:20:32Z</time>
      </trkpt>
      <trkpt lat="47.12425" lon="5.59844">
        <ele>237</ele>
        <time>2020-01-27T08:20:39Z</time>
      </trkpt>
      <trkpt lat="47.1243" lon="5.59886">
        <ele>235</ele>
        <time>2020-01-27T08:21:03Z</time>
      </trkpt>
      <trkpt lat="47.12432" lon="5.59892">
        <ele>236</ele>
        <time>2020-01-27T08:21:06Z</time>
      </trkpt>
      <trkpt lat="47.12443" lon="5.5993">
        <ele>235</ele>
        <time>2020-01-27T08:21:26Z</time>
      </trkpt>
      <trkpt lat="47.12445" lon="5.59937">
        <ele>235</ele>
        <time>2020-01-27T08:21:30Z</time>
      </trkpt>
      <trkpt lat="47.12449" lon="5.59941">
        <ele>235</ele>
        <time>2020-01-27T08:21:35Z</time>
      </trkpt>
      <trkpt lat="47.1245" lon="5.59948">
        <ele>235</ele>
        <time>2020-01-27T08:21:39Z</time>
      </trkpt>
      <trkpt lat="47.12451" lon="5.59955">
        <ele>235</ele>
        <time>2020-01-27T08:21:42Z</time>
      </trkpt>
      <trkpt lat="47.12451" lon="5.59961">
        <ele>235</ele>
        <time>2020-01-27T08:21:46Z</time>
      </trkpt>
      <trkpt lat="47.12451" lon="5.59968">
        <ele>235</ele>
        <time>2020-01-27T08:21:50Z</time>
      </trkpt>
      <trkpt lat="47.12451" lon="5.59976">
        <ele>235</ele>
        <time>2020-01-27T08:21:54Z</time>
      </trkpt>
      <trkpt lat="47.12445" lon="5.60025">
        <ele>233</ele>
        <time>2020-01-27T08:22:20Z</time>
      </trkpt>
      <trkpt lat="47.12446" lon="5.60038">
        <ele>232</ele>
        <time>2020-01-27T08:22:28Z</time>
      </trkpt>
      <trkpt lat="47.12447" lon="5.60068">
        <ele>231</ele>
        <time>2020-01-27T08:22:45Z</time>
      </trkpt>
      <trkpt lat="47.12448" lon="5.60082">
        <ele>230</ele>
        <time>2020-01-27T08:22:54Z</time>
      </trkpt>
      <trkpt lat="47.12451" lon="5.60109">
        <ele>228</ele>
        <time>2020-01-27T08:23:09Z</time>
      </trkpt>
      <trkpt lat="47.12452" lon="5.60124">
        <ele>229</ele>
        <time>2020-01-27T08:23:18Z</time>
      </trkpt>
      <trkpt lat="47.12458" lon="5.60177">
        <ele>227</ele>
        <time>2020-01-27T08:23:49Z</time>
      </trkpt>
      <trkpt lat="47.1246" lon="5.60205">
        <ele>225</ele>
        <time>2020-01-27T08:24:08Z</time>
      </trkpt>
      <trkpt lat="47.12457" lon="5.60218">
        <ele>222</ele>
        <time>2020-01-27T08:24:18Z</time>
      </trkpt>
      <trkpt lat="47.1245" lon="5.60236">
        <ele>222</ele>
        <time>2020-01-27T08:24:32Z</time>
      </trkpt>
      <trkpt lat="47.12446" lon="5.60241">
        <ele>222</ele>
        <time>2020-01-27T08:24:37Z</time>
      </trkpt>
      <trkpt lat="47.12433" lon="5.60254">
        <ele>223</ele>
        <time>2020-01-27T08:24:49Z</time>
      </trkpt>
      <trkpt lat="47.1243" lon="5.60259">
        <ele>221</ele>
        <time>2020-01-27T08:24:52Z</time>
      </trkpt>
      <trkpt lat="47.12414" lon="5.60272">
        <ele>219</ele>
        <time>2020-01-27T08:25:12Z</time>
      </trkpt>
      <trkpt lat="47.124" lon="5.60283">
        <ele>216</ele>
        <time>2020-01-27T08:25:27Z</time>
      </trkpt>
      <trkpt lat="47.12392" lon="5.60292">
        <ele>216</ele>
        <time>2020-01-27T08:25:35Z</time>
      </trkpt>
      <trkpt lat="47.12389" lon="5.60298">
        <ele>215</ele>
        <time>2020-01-27T08:25:40Z</time>
      </trkpt>
      <trkpt lat="47.12375" lon="5.60329">
        <ele>214</ele>
        <time>2020-01-27T08:26:00Z</time>
      </trkpt>
      <trkpt lat="47.12374" lon="5.60336">
        <ele>215</ele>
        <time>2020-01-27T08:26:04Z</time>
      </trkpt>
      <trkpt lat="47.12373" lon="5.60342">
        <ele>215</ele>
        <time>2020-01-27T08:26:08Z</time>
      </trkpt>
      <trkpt lat="47.12374" lon="5.60348">
        <ele>215</ele>
        <time>2020-01-27T08:26:12Z</time>
      </trkpt>
      <trkpt lat="47.12376" lon="5.60356">
        <ele>216</ele>
        <time>2020-01-27T08:26:18Z</time>
      </trkpt>
      <trkpt lat="47.12379" lon="5.60361">
        <ele>216</ele>
        <time>2020-01-27T08:26:22Z</time>
      </trkpt>
      <trkpt lat="47.12381" lon="5.60368">
        <ele>216</ele>
        <time>2020-01-27T08:26:26Z</time>
      </trkpt>
      <trkpt lat="47.12382" lon="5.60376">
        <ele>216</ele>
        <time>2020-01-27T08:26:30Z</time>
      </trkpt>
      <trkpt lat="47.12384" lon="5.60382">
        <ele>217</ele>
        <time>2020-01-27T08:26:34Z</time>
      </trkpt>
      <trkpt lat="47.12388" lon="5.60388">
        <ele>217</ele>
        <time>2020-01-27T08:26:39Z</time>
      </trkpt>
      <trkpt lat="47.1239" lon="5.60395">
        <ele>216</ele>
        <time>2020-01-27T08:26:44Z</time>
      </trkpt>
      <trkpt lat="47.12392" lon="5.60402">
        <ele>216</ele>
        <time>2020-01-27T08:26:48Z</time>
      </trkpt>
      <trkpt lat="47.12395" lon="5.60407">
        <ele>216</ele>
        <time>2020-01-27T08:26:52Z</time>
      </trkpt>
      <trkpt lat="47.12399" lon="5.6042">
        <ele>217</ele>
        <time>2020-01-27T08:27:00Z</time>
      </trkpt>
      <trkpt lat="47.12403" lon="5.60432">
        <ele>216</ele>
        <time>2020-01-27T08:27:08Z</time>
      </trkpt>
      <trkpt lat="47.12405" lon="5.60439">
        <ele>216</ele>
        <time>2020-01-27T08:27:12Z</time>
      </trkpt>
      <trkpt lat="47.12409" lon="5.60444">
        <ele>216</ele>
        <time>2020-01-27T08:27:16Z</time>
      </trkpt>
      <trkpt lat="47.12411" lon="5.6045">
        <ele>217</ele>
        <time>2020-01-27T08:27:20Z</time>
      </trkpt>
      <trkpt lat="47.12413" lon="5.60456">
        <ele>216</ele>
        <time>2020-01-27T08:27:24Z</time>
      </trkpt>
      <trkpt lat="47.12416" lon="5.60463">
        <ele>216</ele>
        <time>2020-01-27T08:27:29Z</time>
      </trkpt>
      <trkpt lat="47.12421" lon="5.60472">
        <ele>216</ele>
        <time>2020-01-27T08:27:37Z</time>
      </trkpt>
      <trkpt lat="47.12427" lon="5.60483">
        <ele>216</ele>
        <time>2020-01-27T08:27:45Z</time>
      </trkpt>
      <trkpt lat="47.12428" lon="5.6049">
        <ele>216</ele>
        <time>2020-01-27T08:27:49Z</time>
      </trkpt>
      <trkpt lat="47.12427" lon="5.60497">
        <ele>216</ele>
        <time>2020-01-27T08:27:53Z</time>
      </trkpt>
      <trkpt lat="47.12422" lon="5.60502">
        <ele>216</ele>
        <time>2020-01-27T08:27:57Z</time>
      </trkpt>
      <trkpt lat="47.12418" lon="5.60504">
        <ele>217</ele>
        <time>2020-01-27T08:28:00Z</time>
      </trkpt>
      <trkpt lat="47.12412" lon="5.60506">
        <ele>217</ele>
        <time>2020-01-27T08:28:04Z</time>
      </trkpt>
      <trkpt lat="47.12403" lon="5.6051">
        <ele>217</ele>
        <time>2020-01-27T08:28:12Z</time>
      </trkpt>
      <trkpt lat="47.12367" lon="5.60526">
        <ele>218</ele>
        <time>2020-01-27T08:28:44Z</time>
      </trkpt>
      <trkpt lat="47.12352" lon="5.60526">
        <ele>217</ele>
        <time>2020-01-27T08:28:57Z</time>
      </trkpt>
      <trkpt lat="47.12337" lon="5.60527">
        <ele>219</ele>
        <time>2020-01-27T08:29:10Z</time>
      </trkpt>
      <trkpt lat="47.12333" lon="5.60527">
        <ele>221</ele>
        <time>2020-01-27T08:29:14Z</time>
      </trkpt>
      <trkpt lat="47.12322" lon="5.60527">
        <ele>221</ele>
        <time>2020-01-27T08:29:23Z</time>
      </trkpt>
      <trkpt lat="47.12313" lon="5.60529">
        <ele>223</ele>
        <time>2020-01-27T08:29:31Z</time>
      </trkpt>
      <trkpt lat="47.12303" lon="5.60528">
        <ele>224</ele>
        <time>2020-01-27T08:29:39Z</time>
      </trkpt>
      <trkpt lat="47.12299" lon="5.60528">
        <ele>223</ele>
        <time>2020-01-27T08:29:43Z</time>
      </trkpt>
      <trkpt lat="47.12294" lon="5.60529">
        <ele>223</ele>
        <time>2020-01-27T08:29:48Z</time>
      </trkpt>
      <trkpt lat="47.12282" lon="5.60531">
        <ele>219</ele>
        <time>2020-01-27T08:30:00Z</time>
      </trkpt>
      <trkpt lat="47.12277" lon="5.60533">
        <ele>219</ele>
        <time>2020-01-27T08:30:04Z</time>
      </trkpt>
      <trkpt lat="47.12272" lon="5.60534">
        <ele>219</ele>
        <time>2020-01-27T08:30:08Z</time>
      </trkpt>
      <trkpt lat="47.12267" lon="5.60536">
        <ele>218</ele>
        <time>2020-01-27T08:30:12Z</time>
      </trkpt>
      <trkpt lat="47.12255" lon="5.60546">
        <ele>219</ele>
        <time>2020-01-27T08:30:22Z</time>
      </trkpt>
      <trkpt lat="47.12249" lon="5.60553">
        <ele>219</ele>
        <time>2020-01-27T08:30:31Z</time>
      </trkpt>
      <trkpt lat="47.12233" lon="5.60571">
        <ele>219</ele>
        <time>2020-01-27T08:30:47Z</time>
      </trkpt>
      <trkpt lat="47.1223" lon="5.60577">
        <ele>219</ele>
        <time>2020-01-27T08:30:51Z</time>
      </trkpt>
      <trkpt lat="47.12227" lon="5.60583">
        <ele>219</ele>
        <time>2020-01-27T08:30:55Z</time>
      </trkpt>
      <trkpt lat="47.1222" lon="5.60592">
        <ele>219</ele>
        <time>2020-01-27T08:31:03Z</time>
      </trkpt>
      <trkpt lat="47.12217" lon="5.60597">
        <ele>219</ele>
        <time>2020-01-27T08:31:07Z</time>
      </trkpt>
      <trkpt lat="47.122" lon="5.60622">
        <ele>219</ele>
        <time>2020-01-27T08:31:27Z</time>
      </trkpt>
      <trkpt lat="47.12192" lon="5.60631">
        <ele>220</ele>
        <time>2020-01-27T08:31:36Z</time>
      </trkpt>
      <trkpt lat="47.12188" lon="5.60636">
        <ele>219</ele>
        <time>2020-01-27T08:31:40Z</time>
      </trkpt>
      <trkpt lat="47.12175" lon="5.60649">
        <ele>219</ele>
        <time>2020-01-27T08:31:52Z</time>
      </trkpt>
      <trkpt lat="47.12171" lon="5.60653">
        <ele>220</ele>
        <time>2020-01-27T08:31:56Z</time>
      </trkpt>
      <trkpt lat="47.12167" lon="5.60657">
        <ele>219</ele>
        <time>2020-01-27T08:32:00Z</time>
      </trkpt>
      <trkpt lat="47.12154" lon="5.60665">
        <ele>220</ele>
        <time>2020-01-27T08:32:12Z</time>
      </trkpt>
      <trkpt lat="47.12149" lon="5.60668">
        <ele>220</ele>
        <time>2020-01-27T08:32:16Z</time>
      </trkpt>
      <trkpt lat="47.1214" lon="5.60674">
        <ele>221</ele>
        <time>2020-01-27T08:32:24Z</time>
      </trkpt>
      <trkpt lat="47.12136" lon="5.60678">
        <ele>221</ele>
        <time>2020-01-27T08:32:28Z</time>
      </trkpt>
      <trkpt lat="47.12127" lon="5.60684">
        <ele>220</ele>
        <time>2020-01-27T08:32:36Z</time>
      </trkpt>
      <trkpt lat="47.12124" lon="5.60688">
        <ele>219</ele>
        <time>2020-01-27T08:32:40Z</time>
      </trkpt>
      <trkpt lat="47.12116" lon="5.60697">
        <ele>220</ele>
        <time>2020-01-27T08:32:48Z</time>
      </trkpt>
      <trkpt lat="47.12112" lon="5.60699">
        <ele>220</ele>
        <time>2020-01-27T08:32:52Z</time>
      </trkpt>
      <trkpt lat="47.12097" lon="5.60717">
        <ele>218</ele>
        <time>2020-01-27T08:33:08Z</time>
      </trkpt>
      <trkpt lat="47.12093" lon="5.60722">
        <ele>218</ele>
        <time>2020-01-27T08:33:12Z</time>
      </trkpt>
      <trkpt lat="47.12088" lon="5.60725">
        <ele>218</ele>
        <time>2020-01-27T08:33:17Z</time>
      </trkpt>
      <trkpt lat="47.12084" lon="5.60729">
        <ele>218</ele>
        <time>2020-01-27T08:33:21Z</time>
      </trkpt>
      <trkpt lat="47.12075" lon="5.60737">
        <ele>218</ele>
        <time>2020-01-27T08:33:29Z</time>
      </trkpt>
      <trkpt lat="47.12067" lon="5.60746">
        <ele>218</ele>
        <time>2020-01-27T08:33:38Z</time>
      </trkpt>
      <trkpt lat="47.12057" lon="5.60753">
        <ele>218</ele>
        <time>2020-01-27T08:33:47Z</time>
      </trkpt>
      <trkpt lat="47.12048" lon="5.60759">
        <ele>219</ele>
        <time>2020-01-27T08:33:54Z</time>
      </trkpt>
      <trkpt lat="47.12044" lon="5.60762">
        <ele>219</ele>
        <time>2020-01-27T08:33:58Z</time>
      </trkpt>
      <trkpt lat="47.12037" lon="5.60771">
        <ele>218</ele>
        <time>2020-01-27T08:34:06Z</time>
      </trkpt>
      <trkpt lat="47.12028" lon="5.6078">
        <ele>218</ele>
        <time>2020-01-27T08:34:16Z</time>
      </trkpt>
      <trkpt lat="47.12023" lon="5.60785">
        <ele>218</ele>
        <time>2020-01-27T08:34:21Z</time>
      </trkpt>
      <trkpt lat="47.12019" lon="5.60789">
        <ele>218</ele>
        <time>2020-01-27T08:34:25Z</time>
      </trkpt>
      <trkpt lat="47.12009" lon="5.60796">
        <ele>218</ele>
        <time>2020-01-27T08:34:34Z</time>
      </trkpt>
      <trkpt lat="47.12005" lon="5.60799">
        <ele>217</ele>
        <time>2020-01-27T08:34:39Z</time>
      </trkpt>
      <trkpt lat="47.11994" lon="5.60807">
        <ele>219</ele>
        <time>2020-01-27T08:34:51Z</time>
      </trkpt>
      <trkpt lat="47.1199" lon="5.6081">
        <ele>218</ele>
        <time>2020-01-27T08:34:56Z</time>
      </trkpt>
      <trkpt lat="47.11981" lon="5.60819">
        <ele>218</ele>
        <time>2020-01-27T08:35:05Z</time>
      </trkpt>
      <trkpt lat="47.11973" lon="5.6083">
        <ele>218</ele>
        <time>2020-01-27T08:35:13Z</time>
      </trkpt>
      <trkpt lat="47.11954" lon="5.60856">
        <ele>218</ele>
        <time>2020-01-27T08:35:33Z</time>
      </trkpt>
      <trkpt lat="47.11947" lon="5.60867">
        <ele>217</ele>
        <time>2020-01-27T08:35:42Z</time>
      </trkpt>
      <trkpt lat="47.11943" lon="5.60872">
        <ele>217</ele>
        <time>2020-01-27T08:35:46Z</time>
      </trkpt>
      <trkpt lat="47.11924" lon="5.60902">
        <ele>220</ele>
        <time>2020-01-27T08:36:12Z</time>
      </trkpt>
      <trkpt lat="47.11921" lon="5.60928">
        <ele>223</ele>
        <time>2020-01-27T08:36:33Z</time>
      </trkpt>
      <trkpt lat="47.11913" lon="5.60935">
        <ele>223</ele>
        <time>2020-01-27T08:36:44Z</time>
      </trkpt>
      <trkpt lat="47.11909" lon="5.60938">
        <ele>225</ele>
        <time>2020-01-27T08:36:49Z</time>
      </trkpt>
      <trkpt lat="47.11904" lon="5.6094">
        <ele>225</ele>
        <time>2020-01-27T08:36:54Z</time>
      </trkpt>
      <trkpt lat="47.11893" lon="5.60942">
        <ele>225</ele>
        <time>2020-01-27T08:37:03Z</time>
      </trkpt>
      <trkpt lat="47.11876" lon="5.6095">
        <ele>225</ele>
        <time>2020-01-27T08:37:19Z</time>
      </trkpt>
      <trkpt lat="47.11867" lon="5.60955">
        <ele>226</ele>
        <time>2020-01-27T08:37:27Z</time>
      </trkpt>
      <trkpt lat="47.11863" lon="5.60958">
        <ele>225</ele>
        <time>2020-01-27T08:37:31Z</time>
      </trkpt>
      <trkpt lat="47.11859" lon="5.60963">
        <ele>225</ele>
        <time>2020-01-27T08:37:36Z</time>
      </trkpt>
      <trkpt lat="47.1185" lon="5.60972">
        <ele>226</ele>
        <time>2020-01-27T08:37:44Z</time>
      </trkpt>
      <trkpt lat="47.11846" lon="5.60977">
        <ele>225</ele>
        <time>2020-01-27T08:37:49Z</time>
      </trkpt>
      <trkpt lat="47.11841" lon="5.60979">
        <ele>226</ele>
        <time>2020-01-27T08:37:53Z</time>
      </trkpt>
      <trkpt lat="47.11838" lon="5.60984">
        <ele>226</ele>
        <time>2020-01-27T08:37:57Z</time>
      </trkpt>
      <trkpt lat="47.11835" lon="5.60988">
        <ele>227</ele>
        <time>2020-01-27T08:38:01Z</time>
      </trkpt>
      <trkpt lat="47.1183" lon="5.60992">
        <ele>227</ele>
        <time>2020-01-27T08:38:06Z</time>
      </trkpt>
      <trkpt lat="47.11822" lon="5.61003">
        <ele>228</ele>
        <time>2020-01-27T08:38:16Z</time>
      </trkpt>
      <trkpt lat="47.11819" lon="5.61008">
        <ele>229</ele>
        <time>2020-01-27T08:38:19Z</time>
      </trkpt>
      <trkpt lat="47.11812" lon="5.61017">
        <ele>230</ele>
        <time>2020-01-27T08:38:27Z</time>
      </trkpt>
      <trkpt lat="47.11809" lon="5.61024">
        <ele>230</ele>
        <time>2020-01-27T08:38:32Z</time>
      </trkpt>
      <trkpt lat="47.11807" lon="5.6103">
        <ele>231</ele>
        <time>2020-01-27T08:38:36Z</time>
      </trkpt>
      <trkpt lat="47.11805" lon="5.61038">
        <ele>231</ele>
        <time>2020-01-27T08:38:42Z</time>
      </trkpt>
      <trkpt lat="47.11804" lon="5.61046">
        <ele>232</ele>
        <time>2020-01-27T08:38:47Z</time>
      </trkpt>
      <trkpt lat="47.11799" lon="5.61058">
        <ele>232</ele>
        <time>2020-01-27T08:38:55Z</time>
      </trkpt>
      <trkpt lat="47.11789" lon="5.61074">
        <ele>235</ele>
        <time>2020-01-27T08:39:09Z</time>
      </trkpt>
      <trkpt lat="47.11787" lon="5.6108">
        <ele>234</ele>
        <time>2020-01-27T08:39:20Z</time>
      </trkpt>
      <trkpt lat="47.11792" lon="5.61086">
        <ele>237</ele>
        <time>2020-01-27T08:39:44Z</time>
      </trkpt>
      <trkpt lat="47.1179" lon="5.61087">
        <ele>241</ele>
        <time>2020-01-27T08:40:44Z</time>
      </trkpt>
      <trkpt lat="47.11789" lon="5.61082">
        <ele>235</ele>
        <time>2020-01-27T08:42:25Z</time>
      </trkpt>
      <trkpt lat="47.11782" lon="5.61093">
        <ele>236</ele>
        <time>2020-01-27T08:42:34Z</time>
      </trkpt>
      <trkpt lat="47.11778" lon="5.61099">
        <ele>236</ele>
        <time>2020-01-27T08:42:39Z</time>
      </trkpt>
      <trkpt lat="47.11774" lon="5.61103">
        <ele>235</ele>
        <time>2020-01-27T08:42:44Z</time>
      </trkpt>
      <trkpt lat="47.11762" lon="5.61123">
        <ele>238</ele>
        <time>2020-01-27T08:43:02Z</time>
      </trkpt>
      <trkpt lat="47.1176" lon="5.61129">
        <ele>239</ele>
        <time>2020-01-27T08:43:07Z</time>
      </trkpt>
      <trkpt lat="47.11756" lon="5.6114">
        <ele>238</ele>
        <time>2020-01-27T08:43:16Z</time>
      </trkpt>
      <trkpt lat="47.11752" lon="5.61161">
        <ele>240</ele>
        <time>2020-01-27T08:43:29Z</time>
      </trkpt>
      <trkpt lat="47.11749" lon="5.61168">
        <ele>239</ele>
        <time>2020-01-27T08:43:33Z</time>
      </trkpt>
      <trkpt lat="47.11746" lon="5.61175">
        <ele>239</ele>
        <time>2020-01-27T08:43:36Z</time>
      </trkpt>
      <trkpt lat="47.11744" lon="5.61181">
        <ele>239</ele>
        <time>2020-01-27T08:43:39Z</time>
      </trkpt>
      <trkpt lat="47.11742" lon="5.61191">
        <ele>238</ele>
        <time>2020-01-27T08:43:44Z</time>
      </trkpt>
      <trkpt lat="47.11741" lon="5.61198">
        <ele>238</ele>
        <time>2020-01-27T08:43:47Z</time>
      </trkpt>
      <trkpt lat="47.11742" lon="5.61204">
        <ele>238</ele>
        <time>2020-01-27T08:43:50Z</time>
      </trkpt>
      <trkpt lat="47.11743" lon="5.61211">
        <ele>237</ele>
        <time>2020-01-27T08:43:54Z</time>
      </trkpt>
      <trkpt lat="47.11743" lon="5.61218">
        <ele>237</ele>
        <time>2020-01-27T08:43:58Z</time>
      </trkpt>
      <trkpt lat="47.11741" lon="5.61234">
        <ele>237</ele>
        <time>2020-01-27T08:44:07Z</time>
      </trkpt>
      <trkpt lat="47.11742" lon="5.61241">
        <ele>236</ele>
        <time>2020-01-27T08:44:11Z</time>
      </trkpt>
      <trkpt lat="47.11742" lon="5.61251">
        <ele>237</ele>
        <time>2020-01-27T08:44:18Z</time>
      </trkpt>
      <trkpt lat="47.11742" lon="5.61259">
        <ele>236</ele>
        <time>2020-01-27T08:44:23Z</time>
      </trkpt>
      <trkpt lat="47.11742" lon="5.61267">
        <ele>236</ele>
        <time>2020-01-27T08:44:28Z</time>
      </trkpt>
      <trkpt lat="47.11741" lon="5.61279">
        <ele>235</ele>
        <time>2020-01-27T08:44:35Z</time>
      </trkpt>
      <trkpt lat="47.1174" lon="5.61286">
        <ele>235</ele>
        <time>2020-01-27T08:44:38Z</time>
      </trkpt>
      <trkpt lat="47.11738" lon="5.61299">
        <ele>235</ele>
        <time>2020-01-27T08:44:45Z</time>
      </trkpt>
      <trkpt lat="47.11737" lon="5.61307">
        <ele>235</ele>
        <time>2020-01-27T08:44:49Z</time>
      </trkpt>
      <trkpt lat="47.11735" lon="5.61314">
        <ele>235</ele>
        <time>2020-01-27T08:44:52Z</time>
      </trkpt>
      <trkpt lat="47.11732" lon="5.6132">
        <ele>236</ele>
        <time>2020-01-27T08:44:56Z</time>
      </trkpt>
      <trkpt lat="47.11728" lon="5.61334">
        <ele>235</ele>
        <time>2020-01-27T08:45:05Z</time>
      </trkpt>
      <trkpt lat="47.11727" lon="5.61341">
        <ele>235</ele>
        <time>2020-01-27T08:45:09Z</time>
      </trkpt>
      <trkpt lat="47.11728" lon="5.61348">
        <ele>236</ele>
        <time>2020-01-27T08:45:13Z</time>
      </trkpt>
      <trkpt lat="47.11727" lon="5.61355">
        <ele>235</ele>
        <time>2020-01-27T08:45:16Z</time>
      </trkpt>
      <trkpt lat="47.11728" lon="5.61362">
        <ele>234</ele>
        <time>2020-01-27T08:45:20Z</time>
      </trkpt>
      <trkpt lat="47.11728" lon="5.6137">
        <ele>235</ele>
        <time>2020-01-27T08:45:24Z</time>
      </trkpt>
      <trkpt lat="47.1173" lon="5.61377">
        <ele>234</ele>
        <time>2020-01-27T08:45:28Z</time>
      </trkpt>
      <trkpt lat="47.1173" lon="5.61385">
        <ele>234</ele>
        <time>2020-01-27T08:45:31Z</time>
      </trkpt>
      <trkpt lat="47.11729" lon="5.61392">
        <ele>234</ele>
        <time>2020-01-27T08:45:34Z</time>
      </trkpt>
      <trkpt lat="47.11728" lon="5.61398">
        <ele>234</ele>
        <time>2020-01-27T08:45:38Z</time>
      </trkpt>
      <trkpt lat="47.11727" lon="5.61413">
        <ele>235</ele>
        <time>2020-01-27T08:45:45Z</time>
      </trkpt>
      <trkpt lat="47.11726" lon="5.61422">
        <ele>234</ele>
        <time>2020-01-27T08:45:51Z</time>
      </trkpt>
      <trkpt lat="47.11725" lon="5.61429">
        <ele>235</ele>
        <time>2020-01-27T08:45:54Z</time>
      </trkpt>
      <trkpt lat="47.11728" lon="5.61466">
        <ele>238</ele>
        <time>2020-01-27T08:46:18Z</time>
      </trkpt>
      <trkpt lat="47.11723" lon="5.6148">
        <ele>239</ele>
        <time>2020-01-27T08:46:28Z</time>
      </trkpt>
      <trkpt lat="47.11718" lon="5.61491">
        <ele>240</ele>
        <time>2020-01-27T08:46:36Z</time>
      </trkpt>
      <trkpt lat="47.11714" lon="5.61503">
        <ele>240</ele>
        <time>2020-01-27T08:46:44Z</time>
      </trkpt>
      <trkpt lat="47.11703" lon="5.61526">
        <ele>242</ele>
        <time>2020-01-27T08:47:01Z</time>
      </trkpt>
      <trkpt lat="47.11699" lon="5.61538">
        <ele>242</ele>
        <time>2020-01-27T08:47:10Z</time>
      </trkpt>
      <trkpt lat="47.11695" lon="5.61553">
        <ele>241</ele>
        <time>2020-01-27T08:47:17Z</time>
      </trkpt>
      <trkpt lat="47.11693" lon="5.61565">
        <ele>241</ele>
        <time>2020-01-27T08:47:24Z</time>
      </trkpt>
      <trkpt lat="47.11692" lon="5.6158">
        <ele>241</ele>
        <time>2020-01-27T08:47:33Z</time>
      </trkpt>
      <trkpt lat="47.11691" lon="5.61593">
        <ele>240</ele>
        <time>2020-01-27T08:47:42Z</time>
      </trkpt>
      <trkpt lat="47.11688" lon="5.61622">
        <ele>241</ele>
        <time>2020-01-27T08:47:59Z</time>
      </trkpt>
      <trkpt lat="47.11684" lon="5.61636">
        <ele>242</ele>
        <time>2020-01-27T08:48:06Z</time>
      </trkpt>
      <trkpt lat="47.11682" lon="5.6165">
        <ele>241</ele>
        <time>2020-01-27T08:48:13Z</time>
      </trkpt>
      <trkpt lat="47.11677" lon="5.61662">
        <ele>242</ele>
        <time>2020-01-27T08:48:22Z</time>
      </trkpt>
      <trkpt lat="47.11673" lon="5.61675">
        <ele>242</ele>
        <time>2020-01-27T08:48:30Z</time>
      </trkpt>
      <trkpt lat="47.11663" lon="5.61692">
        <ele>242</ele>
        <time>2020-01-27T08:48:47Z</time>
      </trkpt>
      <trkpt lat="47.11657" lon="5.61705">
        <ele>243</ele>
        <time>2020-01-27T08:48:55Z</time>
      </trkpt>
      <trkpt lat="47.11653" lon="5.61718">
        <ele>243</ele>
        <time>2020-01-27T08:49:04Z</time>
      </trkpt>
      <trkpt lat="47.11654" lon="5.61732">
        <ele>241</ele>
        <time>2020-01-27T08:49:14Z</time>
      </trkpt>
      <trkpt lat="47.11655" lon="5.61744">
        <ele>242</ele>
        <time>2020-01-27T08:49:38Z</time>
      </trkpt>
      <trkpt lat="47.11652" lon="5.61761">
        <ele>239</ele>
        <time>2020-01-27T08:51:14Z</time>
      </trkpt>
      <trkpt lat="47.11646" lon="5.61775">
        <ele>240</ele>
        <time>2020-01-27T08:51:28Z</time>
      </trkpt>
      <trkpt lat="47.11641" lon="5.6179">
        <ele>241</ele>
        <time>2020-01-27T08:51:36Z</time>
      </trkpt>
      <trkpt lat="47.1164" lon="5.61808">
        <ele>241</ele>
        <time>2020-01-27T08:51:52Z</time>
      </trkpt>
      <trkpt lat="47.11634" lon="5.61848">
        <ele>241</ele>
        <time>2020-01-27T08:52:18Z</time>
      </trkpt>
      <trkpt lat="47.11633" lon="5.61865">
        <ele>242</ele>
        <time>2020-01-27T08:52:30Z</time>
      </trkpt>
      <trkpt lat="47.1163" lon="5.61872">
        <ele>242</ele>
        <time>2020-01-27T08:52:35Z</time>
      </trkpt>
      <trkpt lat="47.1163" lon="5.61879">
        <ele>242</ele>
        <time>2020-01-27T08:52:38Z</time>
      </trkpt>
      <trkpt lat="47.11631" lon="5.61885">
        <ele>242</ele>
        <time>2020-01-27T08:52:42Z</time>
      </trkpt>
      <trkpt lat="47.11631" lon="5.619">
        <ele>241</ele>
        <time>2020-01-27T08:52:48Z</time>
      </trkpt>
      <trkpt lat="47.11634" lon="5.61906">
        <ele>241</ele>
        <time>2020-01-27T08:52:58Z</time>
      </trkpt>
      <trkpt lat="47.11631" lon="5.61912">
        <ele>242</ele>
        <time>2020-01-27T08:53:19Z</time>
      </trkpt>
      <trkpt lat="47.11634" lon="5.61923">
        <ele>243</ele>
        <time>2020-01-27T08:53:33Z</time>
      </trkpt>
      <trkpt lat="47.11641" lon="5.61936">
        <ele>244</ele>
        <time>2020-01-27T08:54:05Z</time>
      </trkpt>
      <trkpt lat="47.11645" lon="5.61939">
        <ele>243</ele>
        <time>2020-01-27T08:54:17Z</time>
      </trkpt>
      <trkpt lat="47.1165" lon="5.61935">
        <ele>241</ele>
        <time>2020-01-27T08:54:47Z</time>
      </trkpt>
      <trkpt lat="47.11661" lon="5.61933">
        <ele>244</ele>
        <time>2020-01-27T08:54:56Z</time>
      </trkpt>
      <trkpt lat="47.11666" lon="5.61932">
        <ele>244</ele>
        <time>2020-01-27T08:55:00Z</time>
      </trkpt>
      <trkpt lat="47.1167" lon="5.61927">
        <ele>244</ele>
        <time>2020-01-27T08:55:08Z</time>
      </trkpt>
      <trkpt lat="47.11676" lon="5.61926">
        <ele>245</ele>
        <time>2020-01-27T08:55:12Z</time>
      </trkpt>
      <trkpt lat="47.11712" lon="5.61918">
        <ele>251</ele>
        <time>2020-01-27T08:55:40Z</time>
      </trkpt>
      <trkpt lat="47.1172" lon="5.61913">
        <ele>252</ele>
        <time>2020-01-27T08:55:49Z</time>
      </trkpt>
      <trkpt lat="47.11731" lon="5.6191">
        <ele>252</ele>
        <time>2020-01-27T08:56:01Z</time>
      </trkpt>
      <trkpt lat="47.1174" lon="5.61903">
        <ele>252</ele>
        <time>2020-01-27T08:56:10Z</time>
      </trkpt>
      <trkpt lat="47.11749" lon="5.61901">
        <ele>252</ele>
        <time>2020-01-27T08:56:18Z</time>
      </trkpt>
      <trkpt lat="47.11759" lon="5.619">
        <ele>252</ele>
        <time>2020-01-27T08:56:27Z</time>
      </trkpt>
      <trkpt lat="47.11787" lon="5.61887">
        <ele>252</ele>
        <time>2020-01-27T08:56:47Z</time>
      </trkpt>
      <trkpt lat="47.11804" lon="5.61881">
        <ele>252</ele>
        <time>2020-01-27T08:57:01Z</time>
      </trkpt>
      <trkpt lat="47.11813" lon="5.61877">
        <ele>251</ele>
        <time>2020-01-27T08:57:08Z</time>
      </trkpt>
      <trkpt lat="47.11822" lon="5.61872">
        <ele>252</ele>
        <time>2020-01-27T08:57:15Z</time>
      </trkpt>
      <trkpt lat="47.11827" lon="5.6187">
        <ele>251</ele>
        <time>2020-01-27T08:57:19Z</time>
      </trkpt>
      <trkpt lat="47.11837" lon="5.61864">
        <ele>251</ele>
        <time>2020-01-27T08:57:28Z</time>
      </trkpt>
      <trkpt lat="47.11847" lon="5.61859">
        <ele>251</ele>
        <time>2020-01-27T08:57:36Z</time>
      </trkpt>
      <trkpt lat="47.11852" lon="5.61858">
        <ele>251</ele>
        <time>2020-01-27T08:57:40Z</time>
      </trkpt>
      <trkpt lat="47.11857" lon="5.61855">
        <ele>251</ele>
        <time>2020-01-27T08:57:44Z</time>
      </trkpt>
      <trkpt lat="47.11862" lon="5.61853">
        <ele>251</ele>
        <time>2020-01-27T08:57:48Z</time>
      </trkpt>
      <trkpt lat="47.11867" lon="5.61851">
        <ele>251</ele>
        <time>2020-01-27T08:57:52Z</time>
      </trkpt>
      <trkpt lat="47.11872" lon="5.61849">
        <ele>251</ele>
        <time>2020-01-27T08:57:57Z</time>
      </trkpt>
      <trkpt lat="47.11878" lon="5.61848">
        <ele>251</ele>
        <time>2020-01-27T08:58:02Z</time>
      </trkpt>
      <trkpt lat="47.11883" lon="5.61853">
        <ele>250</ele>
        <time>2020-01-27T08:58:11Z</time>
      </trkpt>
      <trkpt lat="47.11881" lon="5.61882">
        <ele>246</ele>
        <time>2020-01-27T08:58:29Z</time>
      </trkpt>
      <trkpt lat="47.11884" lon="5.61889">
        <ele>245</ele>
        <time>2020-01-27T08:58:34Z</time>
      </trkpt>
      <trkpt lat="47.11886" lon="5.61895">
        <ele>246</ele>
        <time>2020-01-27T08:58:39Z</time>
      </trkpt>
      <trkpt lat="47.11887" lon="5.61902">
        <ele>246</ele>
        <time>2020-01-27T08:58:44Z</time>
      </trkpt>
      <trkpt lat="47.11887" lon="5.61911">
        <ele>246</ele>
        <time>2020-01-27T08:58:48Z</time>
      </trkpt>
      <trkpt lat="47.11888" lon="5.61918">
        <ele>246</ele>
        <time>2020-01-27T08:58:53Z</time>
      </trkpt>
      <trkpt lat="47.11889" lon="5.61925">
        <ele>246</ele>
        <time>2020-01-27T08:58:57Z</time>
      </trkpt>
      <trkpt lat="47.11889" lon="5.61932">
        <ele>246</ele>
        <time>2020-01-27T08:59:01Z</time>
      </trkpt>
      <trkpt lat="47.11891" lon="5.6194">
        <ele>246</ele>
        <time>2020-01-27T08:59:06Z</time>
      </trkpt>
      <trkpt lat="47.11892" lon="5.61948">
        <ele>247</ele>
        <time>2020-01-27T08:59:10Z</time>
      </trkpt>
      <trkpt lat="47.11894" lon="5.6196">
        <ele>247</ele>
        <time>2020-01-27T08:59:18Z</time>
      </trkpt>
      <trkpt lat="47.11893" lon="5.61956">
        <ele>248</ele>
        <time>2020-01-27T09:00:03Z</time>
      </trkpt>
      <trkpt lat="47.11889" lon="5.61942">
        <ele>246</ele>
        <time>2020-01-27T09:04:05Z</time>
      </trkpt>
      <trkpt lat="47.11899" lon="5.61985">
        <ele>253</ele>
        <time>2020-01-27T09:07:33Z</time>
      </trkpt>
      <trkpt lat="47.11898" lon="5.61993">
        <ele>253</ele>
        <time>2020-01-27T09:07:37Z</time>
      </trkpt>
      <trkpt lat="47.11897" lon="5.62">
        <ele>254</ele>
        <time>2020-01-27T09:07:40Z</time>
      </trkpt>
      <trkpt lat="47.11896" lon="5.62007">
        <ele>254</ele>
        <time>2020-01-27T09:07:43Z</time>
      </trkpt>
      <trkpt lat="47.11896" lon="5.62015">
        <ele>255</ele>
        <time>2020-01-27T09:07:47Z</time>
      </trkpt>
      <trkpt lat="47.11894" lon="5.62022">
        <ele>255</ele>
        <time>2020-01-27T09:07:50Z</time>
      </trkpt>
      <trkpt lat="47.11896" lon="5.62028">
        <ele>255</ele>
        <time>2020-01-27T09:07:54Z</time>
      </trkpt>
      <trkpt lat="47.11898" lon="5.62035">
        <ele>254</ele>
        <time>2020-01-27T09:07:58Z</time>
      </trkpt>
      <trkpt lat="47.11899" lon="5.62042">
        <ele>255</ele>
        <time>2020-01-27T09:08:03Z</time>
      </trkpt>
      <trkpt lat="47.119" lon="5.6205">
        <ele>254</ele>
        <time>2020-01-27T09:08:08Z</time>
      </trkpt>
      <trkpt lat="47.11901" lon="5.62057">
        <ele>255</ele>
        <time>2020-01-27T09:08:13Z</time>
      </trkpt>
      <trkpt lat="47.11904" lon="5.62065">
        <ele>255</ele>
        <time>2020-01-27T09:08:18Z</time>
      </trkpt>
      <trkpt lat="47.11902" lon="5.62083">
        <ele>256</ele>
        <time>2020-01-27T09:08:28Z</time>
      </trkpt>
      <trkpt lat="47.11904" lon="5.6209">
        <ele>256</ele>
        <time>2020-01-27T09:08:32Z</time>
      </trkpt>
      <trkpt lat="47.11906" lon="5.62095">
        <ele>256</ele>
        <time>2020-01-27T09:08:36Z</time>
      </trkpt>
      <trkpt lat="47.11908" lon="5.62102">
        <ele>256</ele>
        <time>2020-01-27T09:08:41Z</time>
      </trkpt>
      <trkpt lat="47.1191" lon="5.62108">
        <ele>256</ele>
        <time>2020-01-27T09:08:45Z</time>
      </trkpt>
      <trkpt lat="47.11911" lon="5.62118">
        <ele>256</ele>
        <time>2020-01-27T09:08:52Z</time>
      </trkpt>
      <trkpt lat="47.11918" lon="5.62131">
        <ele>257</ele>
        <time>2020-01-27T09:09:02Z</time>
      </trkpt>
      <trkpt lat="47.11919" lon="5.62139">
        <ele>256</ele>
        <time>2020-01-27T09:09:06Z</time>
      </trkpt>
      <trkpt lat="47.11919" lon="5.62147">
        <ele>256</ele>
        <time>2020-01-27T09:09:10Z</time>
      </trkpt>
      <trkpt lat="47.11921" lon="5.62153">
        <ele>256</ele>
        <time>2020-01-27T09:09:14Z</time>
      </trkpt>
      <trkpt lat="47.11922" lon="5.6216">
        <ele>256</ele>
        <time>2020-01-27T09:09:18Z</time>
      </trkpt>
      <trkpt lat="47.11923" lon="5.62177">
        <ele>256</ele>
        <time>2020-01-27T09:09:29Z</time>
      </trkpt>
      <trkpt lat="47.11922" lon="5.62184">
        <ele>256</ele>
        <time>2020-01-27T09:09:33Z</time>
      </trkpt>
      <trkpt lat="47.11922" lon="5.62191">
        <ele>255</ele>
        <time>2020-01-27T09:09:37Z</time>
      </trkpt>
      <trkpt lat="47.11926" lon="5.62198">
        <ele>255</ele>
        <time>2020-01-27T09:09:45Z</time>
      </trkpt>
      <trkpt lat="47.11928" lon="5.62206">
        <ele>255</ele>
        <time>2020-01-27T09:09:50Z</time>
      </trkpt>
      <trkpt lat="47.1193" lon="5.62219">
        <ele>255</ele>
        <time>2020-01-27T09:09:58Z</time>
      </trkpt>
      <trkpt lat="47.1193" lon="5.62234">
        <ele>256</ele>
        <time>2020-01-27T09:10:07Z</time>
      </trkpt>
      <trkpt lat="47.11938" lon="5.62245">
        <ele>256</ele>
        <time>2020-01-27T09:10:20Z</time>
      </trkpt>
      <trkpt lat="47.11944" lon="5.62251">
        <ele>257</ele>
        <time>2020-01-27T09:10:25Z</time>
      </trkpt>
      <trkpt lat="47.11945" lon="5.6226">
        <ele>256</ele>
        <time>2020-01-27T09:10:32Z</time>
      </trkpt>
      <trkpt lat="47.11947" lon="5.62269">
        <ele>257</ele>
        <time>2020-01-27T09:10:40Z</time>
      </trkpt>
      <trkpt lat="47.11947" lon="5.62279">
        <ele>257</ele>
        <time>2020-01-27T09:10:48Z</time>
      </trkpt>
      <trkpt lat="47.11944" lon="5.62284">
        <ele>257</ele>
        <time>2020-01-27T09:10:53Z</time>
      </trkpt>
      <trkpt lat="47.11941" lon="5.62293">
        <ele>256</ele>
        <time>2020-01-27T09:11:01Z</time>
      </trkpt>
      <trkpt lat="47.11941" lon="5.623">
        <ele>256</ele>
        <time>2020-01-27T09:11:06Z</time>
      </trkpt>
      <trkpt lat="47.11944" lon="5.62306">
        <ele>256</ele>
        <time>2020-01-27T09:11:10Z</time>
      </trkpt>
      <trkpt lat="47.11946" lon="5.62313">
        <ele>256</ele>
        <time>2020-01-27T09:11:15Z</time>
      </trkpt>
      <trkpt lat="47.1195" lon="5.62327">
        <ele>255</ele>
        <time>2020-01-27T09:11:24Z</time>
      </trkpt>
      <trkpt lat="47.11951" lon="5.62348">
        <ele>256</ele>
        <time>2020-01-27T09:11:37Z</time>
      </trkpt>
      <trkpt lat="47.11957" lon="5.62369">
        <ele>256</ele>
        <time>2020-01-27T09:11:51Z</time>
      </trkpt>
      <trkpt lat="47.11956" lon="5.62384">
        <ele>256</ele>
        <time>2020-01-27T09:11:58Z</time>
      </trkpt>
      <trkpt lat="47.11957" lon="5.62391">
        <ele>257</ele>
        <time>2020-01-27T09:12:02Z</time>
      </trkpt>
      <trkpt lat="47.11957" lon="5.62398">
        <ele>257</ele>
        <time>2020-01-27T09:12:07Z</time>
      </trkpt>
      <trkpt lat="47.11954" lon="5.62404">
        <ele>256</ele>
        <time>2020-01-27T09:12:10Z</time>
      </trkpt>
      <trkpt lat="47.11954" lon="5.62411">
        <ele>256</ele>
        <time>2020-01-27T09:12:14Z</time>
      </trkpt>
      <trkpt lat="47.1196" lon="5.62424">
        <ele>256</ele>
        <time>2020-01-27T09:12:23Z</time>
      </trkpt>
      <trkpt lat="47.1196" lon="5.62431">
        <ele>256</ele>
        <time>2020-01-27T09:12:28Z</time>
      </trkpt>
      <trkpt lat="47.11963" lon="5.62438">
        <ele>256</ele>
        <time>2020-01-27T09:12:33Z</time>
      </trkpt>
      <trkpt lat="47.11963" lon="5.62446">
        <ele>256</ele>
        <time>2020-01-27T09:12:38Z</time>
      </trkpt>
      <trkpt lat="47.11963" lon="5.62461">
        <ele>257</ele>
        <time>2020-01-27T09:12:47Z</time>
      </trkpt>
      <trkpt lat="47.11967" lon="5.62468">
        <ele>257</ele>
        <time>2020-01-27T09:12:53Z</time>
      </trkpt>
      <trkpt lat="47.11968" lon="5.62474">
        <ele>257</ele>
        <time>2020-01-27T09:12:57Z</time>
      </trkpt>
      <trkpt lat="47.11969" lon="5.62481">
        <ele>258</ele>
        <time>2020-01-27T09:13:02Z</time>
      </trkpt>
      <trkpt lat="47.11968" lon="5.62489">
        <ele>258</ele>
        <time>2020-01-27T09:13:07Z</time>
      </trkpt>
      <trkpt lat="47.11969" lon="5.62497">
        <ele>258</ele>
        <time>2020-01-27T09:13:12Z</time>
      </trkpt>
      <trkpt lat="47.1197" lon="5.62505">
        <ele>258</ele>
        <time>2020-01-27T09:13:16Z</time>
      </trkpt>
      <trkpt lat="47.11972" lon="5.62511">
        <ele>258</ele>
        <time>2020-01-27T09:13:20Z</time>
      </trkpt>
      <trkpt lat="47.11971" lon="5.62519">
        <ele>258</ele>
        <time>2020-01-27T09:13:24Z</time>
      </trkpt>
      <trkpt lat="47.11973" lon="5.62533">
        <ele>259</ele>
        <time>2020-01-27T09:13:33Z</time>
      </trkpt>
      <trkpt lat="47.11976" lon="5.62548">
        <ele>259</ele>
        <time>2020-01-27T09:13:43Z</time>
      </trkpt>
      <trkpt lat="47.11978" lon="5.62554">
        <ele>259</ele>
        <time>2020-01-27T09:13:47Z</time>
      </trkpt>
      <trkpt lat="47.11979" lon="5.6257">
        <ele>258</ele>
        <time>2020-01-27T09:13:59Z</time>
      </trkpt>
      <trkpt lat="47.11979" lon="5.62577">
        <ele>258</ele>
        <time>2020-01-27T09:14:03Z</time>
      </trkpt>
      <trkpt lat="47.11981" lon="5.62584">
        <ele>258</ele>
        <time>2020-01-27T09:14:07Z</time>
      </trkpt>
      <trkpt lat="47.11985" lon="5.62589">
        <ele>258</ele>
        <time>2020-01-27T09:14:11Z</time>
      </trkpt>
      <trkpt lat="47.11986" lon="5.62606">
        <ele>259</ele>
        <time>2020-01-27T09:14:24Z</time>
      </trkpt>
      <trkpt lat="47.11988" lon="5.62628">
        <ele>257</ele>
        <time>2020-01-27T09:14:37Z</time>
      </trkpt>
      <trkpt lat="47.11991" lon="5.62635">
        <ele>257</ele>
        <time>2020-01-27T09:14:42Z</time>
      </trkpt>
      <trkpt lat="47.11991" lon="5.62642">
        <ele>257</ele>
        <time>2020-01-27T09:14:46Z</time>
      </trkpt>
      <trkpt lat="47.11991" lon="5.6265">
        <ele>257</ele>
        <time>2020-01-27T09:14:50Z</time>
      </trkpt>
      <trkpt lat="47.11991" lon="5.62658">
        <ele>257</ele>
        <time>2020-01-27T09:14:54Z</time>
      </trkpt>
      <trkpt lat="47.11991" lon="5.62665">
        <ele>257</ele>
        <time>2020-01-27T09:14:58Z</time>
      </trkpt>
      <trkpt lat="47.11992" lon="5.62673">
        <ele>257</ele>
        <time>2020-01-27T09:15:03Z</time>
      </trkpt>
      <trkpt lat="47.11993" lon="5.62681">
        <ele>257</ele>
        <time>2020-01-27T09:15:08Z</time>
      </trkpt>
      <trkpt lat="47.11994" lon="5.62688">
        <ele>257</ele>
        <time>2020-01-27T09:15:12Z</time>
      </trkpt>
      <trkpt lat="47.11996" lon="5.62694">
        <ele>257</ele>
        <time>2020-01-27T09:15:16Z</time>
      </trkpt>
      <trkpt lat="47.11999" lon="5.627">
        <ele>257</ele>
        <time>2020-01-27T09:15:20Z</time>
      </trkpt>
      <trkpt lat="47.12" lon="5.62707">
        <ele>257</ele>
        <time>2020-01-27T09:15:24Z</time>
      </trkpt>
      <trkpt lat="47.12003" lon="5.62713">
        <ele>256</ele>
        <time>2020-01-27T09:15:28Z</time>
      </trkpt>
      <trkpt lat="47.12007" lon="5.62725">
        <ele>256</ele>
        <time>2020-01-27T09:15:34Z</time>
      </trkpt>
      <trkpt lat="47.12007" lon="5.62733">
        <ele>256</ele>
        <time>2020-01-27T09:15:38Z</time>
      </trkpt>
      <trkpt lat="47.12006" lon="5.6274">
        <ele>256</ele>
        <time>2020-01-27T09:15:42Z</time>
      </trkpt>
      <trkpt lat="47.12009" lon="5.62745">
        <ele>256</ele>
        <time>2020-01-27T09:15:46Z</time>
      </trkpt>
      <trkpt lat="47.12009" lon="5.62754">
        <ele>256</ele>
        <time>2020-01-27T09:15:53Z</time>
      </trkpt>
      <trkpt lat="47.1201" lon="5.62761">
        <ele>255</ele>
        <time>2020-01-27T09:15:57Z</time>
      </trkpt>
      <trkpt lat="47.1201" lon="5.62775">
        <ele>256</ele>
        <time>2020-01-27T09:16:05Z</time>
      </trkpt>
      <trkpt lat="47.12015" lon="5.62787">
        <ele>257</ele>
        <time>2020-01-27T09:16:15Z</time>
      </trkpt>
      <trkpt lat="47.12017" lon="5.62803">
        <ele>258</ele>
        <time>2020-01-27T09:16:27Z</time>
      </trkpt>
      <trkpt lat="47.12018" lon="5.62811">
        <ele>257</ele>
        <time>2020-01-27T09:16:31Z</time>
      </trkpt>
      <trkpt lat="47.12018" lon="5.62819">
        <ele>257</ele>
        <time>2020-01-27T09:16:35Z</time>
      </trkpt>
      <trkpt lat="47.1202" lon="5.62841">
        <ele>256</ele>
        <time>2020-01-27T09:16:46Z</time>
      </trkpt>
      <trkpt lat="47.12019" lon="5.62848">
        <ele>255</ele>
        <time>2020-01-27T09:16:51Z</time>
      </trkpt>
      <trkpt lat="47.12025" lon="5.62862">
        <ele>255</ele>
        <time>2020-01-27T09:17:01Z</time>
      </trkpt>
      <trkpt lat="47.12026" lon="5.62869">
        <ele>255</ele>
        <time>2020-01-27T09:17:05Z</time>
      </trkpt>
      <trkpt lat="47.12025" lon="5.62876">
        <ele>255</ele>
        <time>2020-01-27T09:17:09Z</time>
      </trkpt>
      <trkpt lat="47.12027" lon="5.62883">
        <ele>255</ele>
        <time>2020-01-27T09:17:14Z</time>
      </trkpt>
      <trkpt lat="47.12029" lon="5.6289">
        <ele>255</ele>
        <time>2020-01-27T09:17:19Z</time>
      </trkpt>
      <trkpt lat="47.12037" lon="5.62905">
        <ele>256</ele>
        <time>2020-01-27T09:17:32Z</time>
      </trkpt>
      <trkpt lat="47.1204" lon="5.6291">
        <ele>256</ele>
        <time>2020-01-27T09:17:37Z</time>
      </trkpt>
      <trkpt lat="47.12039" lon="5.62919">
        <ele>257</ele>
        <time>2020-01-27T09:17:43Z</time>
      </trkpt>
      <trkpt lat="47.12039" lon="5.62926">
        <ele>257</ele>
        <time>2020-01-27T09:17:47Z</time>
      </trkpt>
      <trkpt lat="47.12041" lon="5.62937">
        <ele>257</ele>
        <time>2020-01-27T09:17:56Z</time>
      </trkpt>
      <trkpt lat="47.12041" lon="5.62951">
        <ele>257</ele>
        <time>2020-01-27T09:18:05Z</time>
      </trkpt>
      <trkpt lat="47.12043" lon="5.62958">
        <ele>256</ele>
        <time>2020-01-27T09:18:10Z</time>
      </trkpt>
      <trkpt lat="47.12044" lon="5.62964">
        <ele>256</ele>
        <time>2020-01-27T09:18:15Z</time>
      </trkpt>
      <trkpt lat="47.12046" lon="5.62975">
        <ele>256</ele>
        <time>2020-01-27T09:18:22Z</time>
      </trkpt>
      <trkpt lat="47.12047" lon="5.62983">
        <ele>256</ele>
        <time>2020-01-27T09:18:26Z</time>
      </trkpt>
      <trkpt lat="47.12047" lon="5.62991">
        <ele>254</ele>
        <time>2020-01-27T09:18:30Z</time>
      </trkpt>
      <trkpt lat="47.12045" lon="5.62998">
        <ele>254</ele>
        <time>2020-01-27T09:18:33Z</time>
      </trkpt>
      <trkpt lat="47.12043" lon="5.63014">
        <ele>253</ele>
        <time>2020-01-27T09:18:41Z</time>
      </trkpt>
      <trkpt lat="47.12047" lon="5.63022">
        <ele>253</ele>
        <time>2020-01-27T09:19:09Z</time>
      </trkpt>
      <trkpt lat="47.1205" lon="5.63028">
        <ele>253</ele>
        <time>2020-01-27T09:19:14Z</time>
      </trkpt>
      <trkpt lat="47.12051" lon="5.63038">
        <ele>253</ele>
        <time>2020-01-27T09:19:22Z</time>
      </trkpt>
      <trkpt lat="47.12053" lon="5.63055">
        <ele>255</ele>
        <time>2020-01-27T09:19:33Z</time>
      </trkpt>
      <trkpt lat="47.12055" lon="5.63077">
        <ele>253</ele>
        <time>2020-01-27T09:19:45Z</time>
      </trkpt>
      <trkpt lat="47.12055" lon="5.63092">
        <ele>254</ele>
        <time>2020-01-27T09:19:53Z</time>
      </trkpt>
      <trkpt lat="47.12053" lon="5.63098">
        <ele>252</ele>
        <time>2020-01-27T09:19:58Z</time>
      </trkpt>
      <trkpt lat="47.12052" lon="5.63107">
        <ele>252</ele>
        <time>2020-01-27T09:20:06Z</time>
      </trkpt>
      <trkpt lat="47.12054" lon="5.63116">
        <ele>253</ele>
        <time>2020-01-27T09:20:14Z</time>
      </trkpt>
      <trkpt lat="47.12057" lon="5.63121">
        <ele>253</ele>
        <time>2020-01-27T09:20:19Z</time>
      </trkpt>
      <trkpt lat="47.12059" lon="5.63127">
        <ele>252</ele>
        <time>2020-01-27T09:20:24Z</time>
      </trkpt>
      <trkpt lat="47.12058" lon="5.63142">
        <ele>251</ele>
        <time>2020-01-27T09:20:34Z</time>
      </trkpt>
      <trkpt lat="47.12066" lon="5.63138">
        <ele>252</ele>
        <time>2020-01-27T09:21:21Z</time>
      </trkpt>
      <trkpt lat="47.12076" lon="5.6314">
        <ele>251</ele>
        <time>2020-01-27T09:22:54Z</time>
      </trkpt>
      <trkpt lat="47.12085" lon="5.63136">
        <ele>251</ele>
        <time>2020-01-27T09:23:01Z</time>
      </trkpt>
      <trkpt lat="47.12089" lon="5.63132">
        <ele>251</ele>
        <time>2020-01-27T09:23:05Z</time>
      </trkpt>
      <trkpt lat="47.12094" lon="5.63129">
        <ele>252</ele>
        <time>2020-01-27T09:23:12Z</time>
      </trkpt>
      <trkpt lat="47.12106" lon="5.63128">
        <ele>254</ele>
        <time>2020-01-27T09:23:21Z</time>
      </trkpt>
      <trkpt lat="47.12114" lon="5.63126">
        <ele>255</ele>
        <time>2020-01-27T09:23:28Z</time>
      </trkpt>
      <trkpt lat="47.12122" lon="5.63123">
        <ele>254</ele>
        <time>2020-01-27T09:23:35Z</time>
      </trkpt>
      <trkpt lat="47.12126" lon="5.63122">
        <ele>253</ele>
        <time>2020-01-27T09:23:38Z</time>
      </trkpt>
      <trkpt lat="47.12131" lon="5.63118">
        <ele>253</ele>
        <time>2020-01-27T09:23:43Z</time>
      </trkpt>
      <trkpt lat="47.1214" lon="5.63114">
        <ele>253</ele>
        <time>2020-01-27T09:23:51Z</time>
      </trkpt>
      <trkpt lat="47.1215" lon="5.63111">
        <ele>253</ele>
        <time>2020-01-27T09:23:59Z</time>
      </trkpt>
      <trkpt lat="47.12156" lon="5.63109">
        <ele>253</ele>
        <time>2020-01-27T09:24:02Z</time>
      </trkpt>
      <trkpt lat="47.12169" lon="5.63104">
        <ele>254</ele>
        <time>2020-01-27T09:24:12Z</time>
      </trkpt>
      <trkpt lat="47.12174" lon="5.63103">
        <ele>254</ele>
        <time>2020-01-27T09:24:16Z</time>
      </trkpt>
      <trkpt lat="47.12204" lon="5.63094">
        <ele>255</ele>
        <time>2020-01-27T09:24:39Z</time>
      </trkpt>
      <trkpt lat="47.12214" lon="5.63092">
        <ele>254</ele>
        <time>2020-01-27T09:24:45Z</time>
      </trkpt>
      <trkpt lat="47.1222" lon="5.63089">
        <ele>254</ele>
        <time>2020-01-27T09:24:49Z</time>
      </trkpt>
      <trkpt lat="47.12225" lon="5.63088">
        <ele>254</ele>
        <time>2020-01-27T09:24:52Z</time>
      </trkpt>
      <trkpt lat="47.12234" lon="5.63087">
        <ele>255</ele>
        <time>2020-01-27T09:24:59Z</time>
      </trkpt>
      <trkpt lat="47.12238" lon="5.63086">
        <ele>255</ele>
        <time>2020-01-27T09:25:04Z</time>
      </trkpt>
      <trkpt lat="47.12243" lon="5.63084">
        <ele>255</ele>
        <time>2020-01-27T09:25:09Z</time>
      </trkpt>
      <trkpt lat="47.12249" lon="5.63082">
        <ele>256</ele>
        <time>2020-01-27T09:25:13Z</time>
      </trkpt>
      <trkpt lat="47.12253" lon="5.63082">
        <ele>255</ele>
        <time>2020-01-27T09:25:16Z</time>
      </trkpt>
      <trkpt lat="47.12258" lon="5.6308">
        <ele>256</ele>
        <time>2020-01-27T09:25:19Z</time>
      </trkpt>
      <trkpt lat="47.12263" lon="5.6308">
        <ele>256</ele>
        <time>2020-01-27T09:25:22Z</time>
      </trkpt>
      <trkpt lat="47.12278" lon="5.63073">
        <ele>258</ele>
        <time>2020-01-27T09:25:35Z</time>
      </trkpt>
      <trkpt lat="47.12294" lon="5.63068">
        <ele>258</ele>
        <time>2020-01-27T09:25:47Z</time>
      </trkpt>
      <trkpt lat="47.12299" lon="5.63065">
        <ele>258</ele>
        <time>2020-01-27T09:25:52Z</time>
      </trkpt>
      <trkpt lat="47.12304" lon="5.63064">
        <ele>258</ele>
        <time>2020-01-27T09:25:56Z</time>
      </trkpt>
      <trkpt lat="47.12314" lon="5.63061">
        <ele>259</ele>
        <time>2020-01-27T09:26:02Z</time>
      </trkpt>
      <trkpt lat="47.1232" lon="5.6306">
        <ele>259</ele>
        <time>2020-01-27T09:26:06Z</time>
      </trkpt>
      <trkpt lat="47.12325" lon="5.63059">
        <ele>257</ele>
        <time>2020-01-27T09:26:10Z</time>
      </trkpt>
      <trkpt lat="47.12335" lon="5.63058">
        <ele>258</ele>
        <time>2020-01-27T09:26:17Z</time>
      </trkpt>
      <trkpt lat="47.1234" lon="5.63056">
        <ele>257</ele>
        <time>2020-01-27T09:26:22Z</time>
      </trkpt>
      <trkpt lat="47.12344" lon="5.63052">
        <ele>256</ele>
        <time>2020-01-27T09:26:27Z</time>
      </trkpt>
      <trkpt lat="47.1235" lon="5.63051">
        <ele>256</ele>
        <time>2020-01-27T09:26:30Z</time>
      </trkpt>
      <trkpt lat="47.12355" lon="5.6305">
        <ele>255</ele>
        <time>2020-01-27T09:26:33Z</time>
      </trkpt>
      <trkpt lat="47.12365" lon="5.63047">
        <ele>255</ele>
        <time>2020-01-27T09:26:39Z</time>
      </trkpt>
      <trkpt lat="47.1237" lon="5.63044">
        <ele>255</ele>
        <time>2020-01-27T09:26:43Z</time>
      </trkpt>
      <trkpt lat="47.12381" lon="5.63041">
        <ele>255</ele>
        <time>2020-01-27T09:26:54Z</time>
      </trkpt>
      <trkpt lat="47.12386" lon="5.63039">
        <ele>254</ele>
        <time>2020-01-27T09:26:58Z</time>
      </trkpt>
      <trkpt lat="47.12402" lon="5.63035">
        <ele>255</ele>
        <time>2020-01-27T09:27:10Z</time>
      </trkpt>
      <trkpt lat="47.12407" lon="5.63033">
        <ele>254</ele>
        <time>2020-01-27T09:27:14Z</time>
      </trkpt>
      <trkpt lat="47.12417" lon="5.63029">
        <ele>254</ele>
        <time>2020-01-27T09:27:23Z</time>
      </trkpt>
      <trkpt lat="47.12426" lon="5.63027">
        <ele>254</ele>
        <time>2020-01-27T09:27:30Z</time>
      </trkpt>
      <trkpt lat="47.12449" lon="5.63017">
        <ele>255</ele>
        <time>2020-01-27T09:27:50Z</time>
      </trkpt>
      <trkpt lat="47.12459" lon="5.63016">
        <ele>255</ele>
        <time>2020-01-27T09:27:56Z</time>
      </trkpt>
      <trkpt lat="47.12484" lon="5.63011">
        <ele>254</ele>
        <time>2020-01-27T09:28:14Z</time>
      </trkpt>
      <trkpt lat="47.12489" lon="5.6301">
        <ele>254</ele>
        <time>2020-01-27T09:28:17Z</time>
      </trkpt>
      <trkpt lat="47.12498" lon="5.63005">
        <ele>254</ele>
        <time>2020-01-27T09:28:26Z</time>
      </trkpt>
      <trkpt lat="47.12503" lon="5.63001">
        <ele>254</ele>
        <time>2020-01-27T09:28:31Z</time>
      </trkpt>
      <trkpt lat="47.12508" lon="5.63">
        <ele>254</ele>
        <time>2020-01-27T09:28:34Z</time>
      </trkpt>
      <trkpt lat="47.12512" lon="5.62999">
        <ele>254</ele>
        <time>2020-01-27T09:28:37Z</time>
      </trkpt>
      <trkpt lat="47.12522" lon="5.62995">
        <ele>254</ele>
        <time>2020-01-27T09:28:47Z</time>
      </trkpt>
      <trkpt lat="47.12527" lon="5.62994">
        <ele>254</ele>
        <time>2020-01-27T09:28:51Z</time>
      </trkpt>
      <trkpt lat="47.12532" lon="5.62993">
        <ele>254</ele>
        <time>2020-01-27T09:28:55Z</time>
      </trkpt>
      <trkpt lat="47.12538" lon="5.62991">
        <ele>255</ele>
        <time>2020-01-27T09:29:00Z</time>
      </trkpt>
      <trkpt lat="47.12552" lon="5.62989">
        <ele>254</ele>
        <time>2020-01-27T09:29:09Z</time>
      </trkpt>
      <trkpt lat="47.12557" lon="5.62987">
        <ele>254</ele>
        <time>2020-01-27T09:29:12Z</time>
      </trkpt>
      <trkpt lat="47.12561" lon="5.62983">
        <ele>254</ele>
        <time>2020-01-27T09:29:17Z</time>
      </trkpt>
      <trkpt lat="47.12567" lon="5.62982">
        <ele>254</ele>
        <time>2020-01-27T09:29:21Z</time>
      </trkpt>
      <trkpt lat="47.12587" lon="5.62977">
        <ele>252</ele>
        <time>2020-01-27T09:29:34Z</time>
      </trkpt>
      <trkpt lat="47.12592" lon="5.62975">
        <ele>253</ele>
        <time>2020-01-27T09:29:37Z</time>
      </trkpt>
      <trkpt lat="47.12608" lon="5.62971">
        <ele>252</ele>
        <time>2020-01-27T09:29:50Z</time>
      </trkpt>
      <trkpt lat="47.12625" lon="5.62965">
        <ele>250</ele>
        <time>2020-01-27T09:30:05Z</time>
      </trkpt>
      <trkpt lat="47.12629" lon="5.62962">
        <ele>250</ele>
        <time>2020-01-27T09:30:09Z</time>
      </trkpt>
      <trkpt lat="47.12645" lon="5.62957">
        <ele>250</ele>
        <time>2020-01-27T09:30:23Z</time>
      </trkpt>
      <trkpt lat="47.12651" lon="5.62956">
        <ele>250</ele>
        <time>2020-01-27T09:30:27Z</time>
      </trkpt>
      <trkpt lat="47.12656" lon="5.62954">
        <ele>250</ele>
        <time>2020-01-27T09:30:30Z</time>
      </trkpt>
      <trkpt lat="47.1267" lon="5.62949">
        <ele>250</ele>
        <time>2020-01-27T09:30:40Z</time>
      </trkpt>
      <trkpt lat="47.12681" lon="5.62946">
        <ele>251</ele>
        <time>2020-01-27T09:30:48Z</time>
      </trkpt>
      <trkpt lat="47.12716" lon="5.62935">
        <ele>250</ele>
        <time>2020-01-27T09:31:13Z</time>
      </trkpt>
      <trkpt lat="47.12721" lon="5.62933">
        <ele>251</ele>
        <time>2020-01-27T09:31:17Z</time>
      </trkpt>
      <trkpt lat="47.12749" lon="5.62929">
        <ele>250</ele>
        <time>2020-01-27T09:31:34Z</time>
      </trkpt>
      <trkpt lat="47.12777" lon="5.62919">
        <ele>250</ele>
        <time>2020-01-27T09:32:01Z</time>
      </trkpt>
      <trkpt lat="47.12786" lon="5.62915">
        <ele>249</ele>
        <time>2020-01-27T09:32:09Z</time>
      </trkpt>
      <trkpt lat="47.12795" lon="5.6291">
        <ele>250</ele>
        <time>2020-01-27T09:32:17Z</time>
      </trkpt>
      <trkpt lat="47.12809" lon="5.62907">
        <ele>250</ele>
        <time>2020-01-27T09:32:27Z</time>
      </trkpt>
      <trkpt lat="47.12814" lon="5.62903">
        <ele>250</ele>
        <time>2020-01-27T09:32:31Z</time>
      </trkpt>
      <trkpt lat="47.1282" lon="5.629">
        <ele>250</ele>
        <time>2020-01-27T09:32:37Z</time>
      </trkpt>
      <trkpt lat="47.12826" lon="5.62899">
        <ele>251</ele>
        <time>2020-01-27T09:32:40Z</time>
      </trkpt>
      <trkpt lat="47.12831" lon="5.62898">
        <ele>251</ele>
        <time>2020-01-27T09:32:44Z</time>
      </trkpt>
      <trkpt lat="47.12836" lon="5.62897">
        <ele>250</ele>
        <time>2020-01-27T09:32:48Z</time>
      </trkpt>
      <trkpt lat="47.12841" lon="5.62895">
        <ele>250</ele>
        <time>2020-01-27T09:32:51Z</time>
      </trkpt>
      <trkpt lat="47.12849" lon="5.62895">
        <ele>249</ele>
        <time>2020-01-27T09:32:59Z</time>
      </trkpt>
      <trkpt lat="47.12859" lon="5.62891">
        <ele>249</ele>
        <time>2020-01-27T09:33:07Z</time>
      </trkpt>
      <trkpt lat="47.12865" lon="5.6289">
        <ele>249</ele>
        <time>2020-01-27T09:33:10Z</time>
      </trkpt>
      <trkpt lat="47.1287" lon="5.6289">
        <ele>249</ele>
        <time>2020-01-27T09:33:14Z</time>
      </trkpt>
      <trkpt lat="47.1288" lon="5.62886">
        <ele>250</ele>
        <time>2020-01-27T09:33:22Z</time>
      </trkpt>
      <trkpt lat="47.12885" lon="5.62885">
        <ele>250</ele>
        <time>2020-01-27T09:33:25Z</time>
      </trkpt>
      <trkpt lat="47.1289" lon="5.62883">
        <ele>249</ele>
        <time>2020-01-27T09:33:29Z</time>
      </trkpt>
      <trkpt lat="47.12896" lon="5.6288">
        <ele>249</ele>
        <time>2020-01-27T09:33:34Z</time>
      </trkpt>
      <trkpt lat="47.129" lon="5.62878">
        <ele>250</ele>
        <time>2020-01-27T09:33:39Z</time>
      </trkpt>
      <trkpt lat="47.12905" lon="5.62877">
        <ele>250</ele>
        <time>2020-01-27T09:33:43Z</time>
      </trkpt>
      <trkpt lat="47.12938" lon="5.62868">
        <ele>250</ele>
        <time>2020-01-27T09:34:05Z</time>
      </trkpt>
      <trkpt lat="47.12944" lon="5.62865">
        <ele>249</ele>
        <time>2020-01-27T09:34:09Z</time>
      </trkpt>
      <trkpt lat="47.12954" lon="5.62861">
        <ele>249</ele>
        <time>2020-01-27T09:34:18Z</time>
      </trkpt>
      <trkpt lat="47.12974" lon="5.62858">
        <ele>248</ele>
        <time>2020-01-27T09:34:30Z</time>
      </trkpt>
      <trkpt lat="47.12984" lon="5.62855">
        <ele>249</ele>
        <time>2020-01-27T09:34:38Z</time>
      </trkpt>
      <trkpt lat="47.12988" lon="5.62853">
        <ele>248</ele>
        <time>2020-01-27T09:34:41Z</time>
      </trkpt>
      <trkpt lat="47.12993" lon="5.62852">
        <ele>248</ele>
        <time>2020-01-27T09:34:44Z</time>
      </trkpt>
      <trkpt lat="47.13009" lon="5.62849">
        <ele>247</ele>
        <time>2020-01-27T09:34:56Z</time>
      </trkpt>
      <trkpt lat="47.13013" lon="5.62845">
        <ele>247</ele>
        <time>2020-01-27T09:35:01Z</time>
      </trkpt>
      <trkpt lat="47.13019" lon="5.62843">
        <ele>246</ele>
        <time>2020-01-27T09:35:05Z</time>
      </trkpt>
      <trkpt lat="47.13024" lon="5.62843">
        <ele>247</ele>
        <time>2020-01-27T09:35:10Z</time>
      </trkpt>
      <trkpt lat="47.13028" lon="5.62842">
        <ele>247</ele>
        <time>2020-01-27T09:35:14Z</time>
      </trkpt>
      <trkpt lat="47.13034" lon="5.6284">
        <ele>247</ele>
        <time>2020-01-27T09:35:18Z</time>
      </trkpt>
      <trkpt lat="47.13039" lon="5.62839">
        <ele>247</ele>
        <time>2020-01-27T09:35:22Z</time>
      </trkpt>
      <trkpt lat="47.13049" lon="5.62833">
        <ele>244</ele>
        <time>2020-01-27T09:35:31Z</time>
      </trkpt>
      <trkpt lat="47.13054" lon="5.6283">
        <ele>243</ele>
        <time>2020-01-27T09:35:35Z</time>
      </trkpt>
      <trkpt lat="47.13064" lon="5.62825">
        <ele>241</ele>
        <time>2020-01-27T09:35:43Z</time>
      </trkpt>
      <trkpt lat="47.13074" lon="5.62823">
        <ele>240</ele>
        <time>2020-01-27T09:35:50Z</time>
      </trkpt>
      <trkpt lat="47.1308" lon="5.62823">
        <ele>239</ele>
        <time>2020-01-27T09:35:54Z</time>
      </trkpt>
      <trkpt lat="47.13111" lon="5.62815">
        <ele>237</ele>
        <time>2020-01-27T09:36:15Z</time>
      </trkpt>
      <trkpt lat="47.13121" lon="5.62811">
        <ele>235</ele>
        <time>2020-01-27T09:36:25Z</time>
      </trkpt>
      <trkpt lat="47.13125" lon="5.6281">
        <ele>235</ele>
        <time>2020-01-27T09:36:29Z</time>
      </trkpt>
      <trkpt lat="47.13131" lon="5.62808">
        <ele>235</ele>
        <time>2020-01-27T09:36:34Z</time>
      </trkpt>
      <trkpt lat="47.13161" lon="5.62801">
        <ele>233</ele>
        <time>2020-01-27T09:36:56Z</time>
      </trkpt>
      <trkpt lat="47.13187" lon="5.6279">
        <ele>232</ele>
        <time>2020-01-27T09:37:18Z</time>
      </trkpt>
      <trkpt lat="47.13191" lon="5.62788">
        <ele>233</ele>
        <time>2020-01-27T09:37:23Z</time>
      </trkpt>
      <trkpt lat="47.13206" lon="5.62785">
        <ele>230</ele>
        <time>2020-01-27T09:37:35Z</time>
      </trkpt>
      <trkpt lat="47.13212" lon="5.62783">
        <ele>230</ele>
        <time>2020-01-27T09:37:41Z</time>
      </trkpt>
      <trkpt lat="47.13222" lon="5.62778">
        <ele>229</ele>
        <time>2020-01-27T09:37:49Z</time>
      </trkpt>
      <trkpt lat="47.13232" lon="5.62775">
        <ele>230</ele>
        <time>2020-01-27T09:37:57Z</time>
      </trkpt>
      <trkpt lat="47.13237" lon="5.62774">
        <ele>230</ele>
        <time>2020-01-27T09:38:01Z</time>
      </trkpt>
      <trkpt lat="47.13246" lon="5.62772">
        <ele>231</ele>
        <time>2020-01-27T09:38:09Z</time>
      </trkpt>
      <trkpt lat="47.13252" lon="5.6277">
        <ele>231</ele>
        <time>2020-01-27T09:38:12Z</time>
      </trkpt>
      <trkpt lat="47.13261" lon="5.62763">
        <ele>230</ele>
        <time>2020-01-27T09:38:26Z</time>
      </trkpt>
      <trkpt lat="47.13268" lon="5.62754">
        <ele>232</ele>
        <time>2020-01-27T09:40:42Z</time>
      </trkpt>
      <trkpt lat="47.13271" lon="5.62751">
        <ele>232</ele>
        <time>2020-01-27T09:40:45Z</time>
      </trkpt>
      <trkpt lat="47.13277" lon="5.62739">
        <ele>233</ele>
        <time>2020-01-27T09:40:53Z</time>
      </trkpt>
      <trkpt lat="47.13277" lon="5.6273">
        <ele>233</ele>
        <time>2020-01-27T09:40:57Z</time>
      </trkpt>
      <trkpt lat="47.13277" lon="5.62722">
        <ele>233</ele>
        <time>2020-01-27T09:41:01Z</time>
      </trkpt>
      <trkpt lat="47.13276" lon="5.62707">
        <ele>231</ele>
        <time>2020-01-27T09:41:08Z</time>
      </trkpt>
      <trkpt lat="47.13274" lon="5.62693">
        <ele>230</ele>
        <time>2020-01-27T09:41:15Z</time>
      </trkpt>
      <trkpt lat="47.13274" lon="5.6267">
        <ele>227</ele>
        <time>2020-01-27T09:41:27Z</time>
      </trkpt>
      <trkpt lat="47.13273" lon="5.62655">
        <ele>227</ele>
        <time>2020-01-27T09:41:35Z</time>
      </trkpt>
      <trkpt lat="47.13262" lon="5.62598">
        <ele>225</ele>
        <time>2020-01-27T09:42:08Z</time>
      </trkpt>
      <trkpt lat="47.13262" lon="5.6259">
        <ele>225</ele>
        <time>2020-01-27T09:42:12Z</time>
      </trkpt>
      <trkpt lat="47.13259" lon="5.62583">
        <ele>224</ele>
        <time>2020-01-27T09:42:16Z</time>
      </trkpt>
      <trkpt lat="47.13259" lon="5.62576">
        <ele>224</ele>
        <time>2020-01-27T09:42:20Z</time>
      </trkpt>
      <trkpt lat="47.13251" lon="5.62555">
        <ele>225</ele>
        <time>2020-01-27T09:42:32Z</time>
      </trkpt>
      <trkpt lat="47.13248" lon="5.62548">
        <ele>225</ele>
        <time>2020-01-27T09:42:36Z</time>
      </trkpt>
      <trkpt lat="47.13242" lon="5.62536">
        <ele>225</ele>
        <time>2020-01-27T09:42:44Z</time>
      </trkpt>
      <trkpt lat="47.13241" lon="5.62528">
        <ele>225</ele>
        <time>2020-01-27T09:42:48Z</time>
      </trkpt>
      <trkpt lat="47.13239" lon="5.62514">
        <ele>225</ele>
        <time>2020-01-27T09:42:55Z</time>
      </trkpt>
      <trkpt lat="47.13237" lon="5.62506">
        <ele>225</ele>
        <time>2020-01-27T09:42:59Z</time>
      </trkpt>
      <trkpt lat="47.13235" lon="5.62499">
        <ele>224</ele>
        <time>2020-01-27T09:43:03Z</time>
      </trkpt>
      <trkpt lat="47.13233" lon="5.62492">
        <ele>224</ele>
        <time>2020-01-27T09:43:07Z</time>
      </trkpt>
      <trkpt lat="47.13231" lon="5.62476">
        <ele>224</ele>
        <time>2020-01-27T09:43:15Z</time>
      </trkpt>
      <trkpt lat="47.13221" lon="5.62431">
        <ele>225</ele>
        <time>2020-01-27T09:43:40Z</time>
      </trkpt>
      <trkpt lat="47.13218" lon="5.62425">
        <ele>224</ele>
        <time>2020-01-27T09:43:44Z</time>
      </trkpt>
      <trkpt lat="47.13217" lon="5.62417">
        <ele>224</ele>
        <time>2020-01-27T09:43:49Z</time>
      </trkpt>
      <trkpt lat="47.13215" lon="5.62402">
        <ele>224</ele>
        <time>2020-01-27T09:43:56Z</time>
      </trkpt>
      <trkpt lat="47.13213" lon="5.62396">
        <ele>224</ele>
        <time>2020-01-27T09:43:59Z</time>
      </trkpt>
      <trkpt lat="47.13207" lon="5.62382">
        <ele>223</ele>
        <time>2020-01-27T09:44:06Z</time>
      </trkpt>
      <trkpt lat="47.13205" lon="5.62367">
        <ele>223</ele>
        <time>2020-01-27T09:44:14Z</time>
      </trkpt>
      <trkpt lat="47.132" lon="5.62353">
        <ele>222</ele>
        <time>2020-01-27T09:44:22Z</time>
      </trkpt>
      <trkpt lat="47.13196" lon="5.62338">
        <ele>221</ele>
        <time>2020-01-27T09:44:30Z</time>
      </trkpt>
      <trkpt lat="47.13196" lon="5.62329">
        <ele>221</ele>
        <time>2020-01-27T09:44:34Z</time>
      </trkpt>
      <trkpt lat="47.13196" lon="5.62321">
        <ele>220</ele>
        <time>2020-01-27T09:44:38Z</time>
      </trkpt>
      <trkpt lat="47.13199" lon="5.62313">
        <ele>220</ele>
        <time>2020-01-27T09:44:42Z</time>
      </trkpt>
      <trkpt lat="47.13204" lon="5.623">
        <ele>219</ele>
        <time>2020-01-27T09:44:50Z</time>
      </trkpt>
      <trkpt lat="47.13212" lon="5.62282">
        <ele>218</ele>
        <time>2020-01-27T09:45:00Z</time>
      </trkpt>
      <trkpt lat="47.13221" lon="5.62258">
        <ele>216</ele>
        <time>2020-01-27T09:45:15Z</time>
      </trkpt>
      <trkpt lat="47.13227" lon="5.62247">
        <ele>216</ele>
        <time>2020-01-27T09:45:21Z</time>
      </trkpt>
      <trkpt lat="47.1323" lon="5.62232">
        <ele>217</ele>
        <time>2020-01-27T09:45:29Z</time>
      </trkpt>
      <trkpt lat="47.1323" lon="5.62224">
        <ele>217</ele>
        <time>2020-01-27T09:45:34Z</time>
      </trkpt>
      <trkpt lat="47.13247" lon="5.62188">
        <ele>214</ele>
        <time>2020-01-27T09:45:56Z</time>
      </trkpt>
      <trkpt lat="47.1325" lon="5.62181">
        <ele>214</ele>
        <time>2020-01-27T09:46:00Z</time>
      </trkpt>
      <trkpt lat="47.13251" lon="5.62173">
        <ele>215</ele>
        <time>2020-01-27T09:46:04Z</time>
      </trkpt>
      <trkpt lat="47.13248" lon="5.62166">
        <ele>215</ele>
        <time>2020-01-27T09:46:08Z</time>
      </trkpt>
      <trkpt lat="47.13246" lon="5.62161">
        <ele>215</ele>
        <time>2020-01-27T09:46:11Z</time>
      </trkpt>
      <trkpt lat="47.13241" lon="5.6216">
        <ele>216</ele>
        <time>2020-01-27T09:46:15Z</time>
      </trkpt>
      <trkpt lat="47.13236" lon="5.6216">
        <ele>216</ele>
        <time>2020-01-27T09:46:19Z</time>
      </trkpt>
      <trkpt lat="47.1322" lon="5.62154">
        <ele>217</ele>
        <time>2020-01-27T09:46:32Z</time>
      </trkpt>
      <trkpt lat="47.13216" lon="5.62149">
        <ele>219</ele>
        <time>2020-01-27T09:46:36Z</time>
      </trkpt>
      <trkpt lat="47.13213" lon="5.62141">
        <ele>219</ele>
        <time>2020-01-27T09:46:40Z</time>
      </trkpt>
      <trkpt lat="47.13212" lon="5.62134">
        <ele>220</ele>
        <time>2020-01-27T09:46:44Z</time>
      </trkpt>
      <trkpt lat="47.13213" lon="5.62126">
        <ele>220</ele>
        <time>2020-01-27T09:46:49Z</time>
      </trkpt>
      <trkpt lat="47.1321" lon="5.62102">
        <ele>219</ele>
        <time>2020-01-27T09:47:01Z</time>
      </trkpt>
      <trkpt lat="47.13209" lon="5.62094">
        <ele>219</ele>
        <time>2020-01-27T09:47:05Z</time>
      </trkpt>
      <trkpt lat="47.13208" lon="5.62088">
        <ele>220</ele>
        <time>2020-01-27T09:47:08Z</time>
      </trkpt>
      <trkpt lat="47.13202" lon="5.62059">
        <ele>221</ele>
        <time>2020-01-27T09:47:23Z</time>
      </trkpt>
      <trkpt lat="47.13201" lon="5.62051">
        <ele>220</ele>
        <time>2020-01-27T09:47:27Z</time>
      </trkpt>
      <trkpt lat="47.13198" lon="5.62036">
        <ele>221</ele>
        <time>2020-01-27T09:47:35Z</time>
      </trkpt>
      <trkpt lat="47.13195" lon="5.62022">
        <ele>221</ele>
        <time>2020-01-27T09:47:43Z</time>
      </trkpt>
      <trkpt lat="47.13194" lon="5.62015">
        <ele>220</ele>
        <time>2020-01-27T09:47:47Z</time>
      </trkpt>
      <trkpt lat="47.13186" lon="5.61969">
        <ele>221</ele>
        <time>2020-01-27T09:48:11Z</time>
      </trkpt>
      <trkpt lat="47.13185" lon="5.61961">
        <ele>221</ele>
        <time>2020-01-27T09:48:15Z</time>
      </trkpt>
      <trkpt lat="47.13183" lon="5.61946">
        <ele>221</ele>
        <time>2020-01-27T09:48:23Z</time>
      </trkpt>
      <trkpt lat="47.13182" lon="5.61939">
        <ele>220</ele>
        <time>2020-01-27T09:48:27Z</time>
      </trkpt>
      <trkpt lat="47.1318" lon="5.61932">
        <ele>221</ele>
        <time>2020-01-27T09:48:31Z</time>
      </trkpt>
      <trkpt lat="47.13178" lon="5.61917">
        <ele>220</ele>
        <time>2020-01-27T09:48:39Z</time>
      </trkpt>
      <trkpt lat="47.13177" lon="5.61909">
        <ele>220</ele>
        <time>2020-01-27T09:48:43Z</time>
      </trkpt>
      <trkpt lat="47.13176" lon="5.619">
        <ele>219</ele>
        <time>2020-01-27T09:48:47Z</time>
      </trkpt>
      <trkpt lat="47.13176" lon="5.61892">
        <ele>218</ele>
        <time>2020-01-27T09:48:51Z</time>
      </trkpt>
      <trkpt lat="47.13175" lon="5.61884">
        <ele>218</ele>
        <time>2020-01-27T09:48:55Z</time>
      </trkpt>
      <trkpt lat="47.13173" lon="5.61869">
        <ele>217</ele>
        <time>2020-01-27T09:49:03Z</time>
      </trkpt>
      <trkpt lat="47.13173" lon="5.61862">
        <ele>217</ele>
        <time>2020-01-27T09:49:07Z</time>
      </trkpt>
      <trkpt lat="47.13171" lon="5.61854">
        <ele>217</ele>
        <time>2020-01-27T09:49:11Z</time>
      </trkpt>
      <trkpt lat="47.13168" lon="5.61839">
        <ele>216</ele>
        <time>2020-01-27T09:49:20Z</time>
      </trkpt>
      <trkpt lat="47.13167" lon="5.61823">
        <ele>217</ele>
        <time>2020-01-27T09:49:29Z</time>
      </trkpt>
      <trkpt lat="47.13165" lon="5.61816">
        <ele>217</ele>
        <time>2020-01-27T09:49:33Z</time>
      </trkpt>
      <trkpt lat="47.13161" lon="5.61787">
        <ele>216</ele>
        <time>2020-01-27T09:49:50Z</time>
      </trkpt>
      <trkpt lat="47.13159" lon="5.61781">
        <ele>216</ele>
        <time>2020-01-27T09:49:54Z</time>
      </trkpt>
      <trkpt lat="47.13156" lon="5.61775">
        <ele>217</ele>
        <time>2020-01-27T09:49:58Z</time>
      </trkpt>
      <trkpt lat="47.13147" lon="5.61765">
        <ele>217</ele>
        <time>2020-01-27T09:50:08Z</time>
      </trkpt>
      <trkpt lat="47.13113" lon="5.6173">
        <ele>222</ele>
        <time>2020-01-27T09:50:40Z</time>
      </trkpt>
      <trkpt lat="47.13108" lon="5.61726">
        <ele>222</ele>
        <time>2020-01-27T09:50:44Z</time>
      </trkpt>
      <trkpt lat="47.13094" lon="5.61716">
        <ele>221</ele>
        <time>2020-01-27T09:50:56Z</time>
      </trkpt>
      <trkpt lat="47.1309" lon="5.61713">
        <ele>221</ele>
        <time>2020-01-27T09:51:00Z</time>
      </trkpt>
      <trkpt lat="47.13085" lon="5.61711">
        <ele>221</ele>
        <time>2020-01-27T09:51:04Z</time>
      </trkpt>
      <trkpt lat="47.13041" lon="5.61686">
        <ele>226</ele>
        <time>2020-01-27T09:51:38Z</time>
      </trkpt>
      <trkpt lat="47.13025" lon="5.6168">
        <ele>228</ele>
        <time>2020-01-27T09:51:50Z</time>
      </trkpt>
      <trkpt lat="47.13015" lon="5.61677">
        <ele>227</ele>
        <time>2020-01-27T09:51:58Z</time>
      </trkpt>
      <trkpt lat="47.12975" lon="5.61663">
        <ele>229</ele>
        <time>2020-01-27T09:52:30Z</time>
      </trkpt>
      <trkpt lat="47.1297" lon="5.61661">
        <ele>230</ele>
        <time>2020-01-27T09:52:34Z</time>
      </trkpt>
      <trkpt lat="47.12965" lon="5.61659">
        <ele>230</ele>
        <time>2020-01-27T09:52:37Z</time>
      </trkpt>
      <trkpt lat="47.12919" lon="5.61639">
        <ele>233</ele>
        <time>2020-01-27T09:53:12Z</time>
      </trkpt>
      <trkpt lat="47.12913" lon="5.61637">
        <ele>233</ele>
        <time>2020-01-27T09:53:17Z</time>
      </trkpt>
      <trkpt lat="47.12904" lon="5.61632">
        <ele>232</ele>
        <time>2020-01-27T09:53:25Z</time>
      </trkpt>
      <trkpt lat="47.129" lon="5.6163">
        <ele>232</ele>
        <time>2020-01-27T09:53:29Z</time>
      </trkpt>
      <trkpt lat="47.12896" lon="5.61626">
        <ele>233</ele>
        <time>2020-01-27T09:53:34Z</time>
      </trkpt>
      <trkpt lat="47.12889" lon="5.6162">
        <ele>235</ele>
        <time>2020-01-27T09:53:48Z</time>
      </trkpt>
      <trkpt lat="47.12876" lon="5.61608">
        <ele>234</ele>
        <time>2020-01-27T09:54:00Z</time>
      </trkpt>
      <trkpt lat="47.12871" lon="5.61603">
        <ele>235</ele>
        <time>2020-01-27T09:54:04Z</time>
      </trkpt>
      <trkpt lat="47.12867" lon="5.61598">
        <ele>235</ele>
        <time>2020-01-27T09:54:09Z</time>
      </trkpt>
      <trkpt lat="47.12851" lon="5.61581">
        <ele>235</ele>
        <time>2020-01-27T09:54:25Z</time>
      </trkpt>
      <trkpt lat="47.12848" lon="5.61576">
        <ele>236</ele>
        <time>2020-01-27T09:54:29Z</time>
      </trkpt>
      <trkpt lat="47.12833" lon="5.61556">
        <ele>237</ele>
        <time>2020-01-27T09:54:45Z</time>
      </trkpt>
      <trkpt lat="47.1283" lon="5.61552">
        <ele>237</ele>
        <time>2020-01-27T09:54:49Z</time>
      </trkpt>
      <trkpt lat="47.12822" lon="5.61543">
        <ele>237</ele>
        <time>2020-01-27T09:54:57Z</time>
      </trkpt>
      <trkpt lat="47.12791" lon="5.61506">
        <ele>239</ele>
        <time>2020-01-27T09:55:30Z</time>
      </trkpt>
      <trkpt lat="47.12787" lon="5.61502">
        <ele>239</ele>
        <time>2020-01-27T09:55:34Z</time>
      </trkpt>
      <trkpt lat="47.12783" lon="5.61497">
        <ele>239</ele>
        <time>2020-01-27T09:55:38Z</time>
      </trkpt>
      <trkpt lat="47.12775" lon="5.61489">
        <ele>240</ele>
        <time>2020-01-27T09:55:46Z</time>
      </trkpt>
      <trkpt lat="47.12771" lon="5.61483">
        <ele>240</ele>
        <time>2020-01-27T09:55:51Z</time>
      </trkpt>
      <trkpt lat="47.12768" lon="5.61477">
        <ele>240</ele>
        <time>2020-01-27T09:55:56Z</time>
      </trkpt>
      <trkpt lat="47.12765" lon="5.6147">
        <ele>240</ele>
        <time>2020-01-27T09:56:01Z</time>
      </trkpt>
      <trkpt lat="47.12762" lon="5.61455">
        <ele>239</ele>
        <time>2020-01-27T09:56:11Z</time>
      </trkpt>
      <trkpt lat="47.12764" lon="5.6144">
        <ele>237</ele>
        <time>2020-01-27T09:56:20Z</time>
      </trkpt>
      <trkpt lat="47.12765" lon="5.61426">
        <ele>237</ele>
        <time>2020-01-27T09:56:28Z</time>
      </trkpt>
      <trkpt lat="47.12765" lon="5.61419">
        <ele>236</ele>
        <time>2020-01-27T09:56:32Z</time>
      </trkpt>
      <trkpt lat="47.12762" lon="5.61404">
        <ele>236</ele>
        <time>2020-01-27T09:56:40Z</time>
      </trkpt>
      <trkpt lat="47.1276" lon="5.61397">
        <ele>236</ele>
        <time>2020-01-27T09:56:44Z</time>
      </trkpt>
      <trkpt lat="47.12756" lon="5.61384">
        <ele>236</ele>
        <time>2020-01-27T09:56:52Z</time>
      </trkpt>
      <trkpt lat="47.12751" lon="5.6137">
        <ele>235</ele>
        <time>2020-01-27T09:57:00Z</time>
      </trkpt>
      <trkpt lat="47.12747" lon="5.61355">
        <ele>236</ele>
        <time>2020-01-27T09:57:08Z</time>
      </trkpt>
      <trkpt lat="47.12745" lon="5.61348">
        <ele>236</ele>
        <time>2020-01-27T09:57:12Z</time>
      </trkpt>
      <trkpt lat="47.12744" lon="5.61341">
        <ele>236</ele>
        <time>2020-01-27T09:57:16Z</time>
      </trkpt>
      <trkpt lat="47.1274" lon="5.61327">
        <ele>236</ele>
        <time>2020-01-27T09:57:24Z</time>
      </trkpt>
      <trkpt lat="47.12738" lon="5.6132">
        <ele>236</ele>
        <time>2020-01-27T09:57:28Z</time>
      </trkpt>
      <trkpt lat="47.12736" lon="5.61312">
        <ele>236</ele>
        <time>2020-01-27T09:57:32Z</time>
      </trkpt>
      <trkpt lat="47.1273" lon="5.61292">
        <ele>236</ele>
        <time>2020-01-27T09:57:45Z</time>
      </trkpt>
      <trkpt lat="47.12728" lon="5.61285">
        <ele>236</ele>
        <time>2020-01-27T09:57:49Z</time>
      </trkpt>
      <trkpt lat="47.12726" lon="5.61277">
        <ele>236</ele>
        <time>2020-01-27T09:57:53Z</time>
      </trkpt>
      <trkpt lat="47.12725" lon="5.6127">
        <ele>236</ele>
        <time>2020-01-27T09:57:57Z</time>
      </trkpt>
      <trkpt lat="47.12723" lon="5.61263">
        <ele>236</ele>
        <time>2020-01-27T09:58:01Z</time>
      </trkpt>
      <trkpt lat="47.1272" lon="5.6125">
        <ele>237</ele>
        <time>2020-01-27T09:58:09Z</time>
      </trkpt>
      <trkpt lat="47.12718" lon="5.61242">
        <ele>236</ele>
        <time>2020-01-27T09:58:14Z</time>
      </trkpt>
      <trkpt lat="47.12716" lon="5.61235">
        <ele>236</ele>
        <time>2020-01-27T09:58:18Z</time>
      </trkpt>
      <trkpt lat="47.12714" lon="5.61228">
        <ele>236</ele>
        <time>2020-01-27T09:58:22Z</time>
      </trkpt>
      <trkpt lat="47.12712" lon="5.61221">
        <ele>236</ele>
        <time>2020-01-27T09:58:26Z</time>
      </trkpt>
      <trkpt lat="47.12707" lon="5.61199">
        <ele>237</ele>
        <time>2020-01-27T09:58:38Z</time>
      </trkpt>
      <trkpt lat="47.12705" lon="5.61191">
        <ele>236</ele>
        <time>2020-01-27T09:58:42Z</time>
      </trkpt>
      <trkpt lat="47.12704" lon="5.61184">
        <ele>237</ele>
        <time>2020-01-27T09:58:46Z</time>
      </trkpt>
      <trkpt lat="47.12702" lon="5.61177">
        <ele>237</ele>
        <time>2020-01-27T09:58:50Z</time>
      </trkpt>
      <trkpt lat="47.12701" lon="5.61169">
        <ele>238</ele>
        <time>2020-01-27T09:58:54Z</time>
      </trkpt>
      <trkpt lat="47.12695" lon="5.61141">
        <ele>238</ele>
        <time>2020-01-27T09:59:10Z</time>
      </trkpt>
      <trkpt lat="47.12693" lon="5.61133">
        <ele>238</ele>
        <time>2020-01-27T09:59:14Z</time>
      </trkpt>
      <trkpt lat="47.12688" lon="5.61106">
        <ele>238</ele>
        <time>2020-01-27T09:59:30Z</time>
      </trkpt>
      <trkpt lat="47.12686" lon="5.61092">
        <ele>237</ele>
        <time>2020-01-27T09:59:38Z</time>
      </trkpt>
      <trkpt lat="47.12683" lon="5.6108">
        <ele>237</ele>
        <time>2020-01-27T09:59:46Z</time>
      </trkpt>
      <trkpt lat="47.12681" lon="5.61073">
        <ele>236</ele>
        <time>2020-01-27T09:59:50Z</time>
      </trkpt>
      <trkpt lat="47.12679" lon="5.61059">
        <ele>236</ele>
        <time>2020-01-27T09:59:59Z</time>
      </trkpt>
      <trkpt lat="47.1267" lon="5.61023">
        <ele>236</ele>
        <time>2020-01-27T10:00:19Z</time>
      </trkpt>
      <trkpt lat="47.12669" lon="5.61016">
        <ele>235</ele>
        <time>2020-01-27T10:00:23Z</time>
      </trkpt>
      <trkpt lat="47.12667" lon="5.6101">
        <ele>235</ele>
        <time>2020-01-27T10:00:27Z</time>
      </trkpt>
      <trkpt lat="47.12664" lon="5.61004">
        <ele>235</ele>
        <time>2020-01-27T10:00:31Z</time>
      </trkpt>
      <trkpt lat="47.12663" lon="5.60997">
        <ele>235</ele>
        <time>2020-01-27T10:00:35Z</time>
      </trkpt>
      <trkpt lat="47.12642" lon="5.6094">
        <ele>231</ele>
        <time>2020-01-27T10:01:15Z</time>
      </trkpt>
      <trkpt lat="47.12637" lon="5.60927">
        <ele>230</ele>
        <time>2020-01-27T10:01:23Z</time>
      </trkpt>
      <trkpt lat="47.12635" lon="5.6092">
        <ele>230</ele>
        <time>2020-01-27T10:01:27Z</time>
      </trkpt>
      <trkpt lat="47.12633" lon="5.60914">
        <ele>230</ele>
        <time>2020-01-27T10:01:31Z</time>
      </trkpt>
      <trkpt lat="47.1263" lon="5.60907">
        <ele>230</ele>
        <time>2020-01-27T10:01:35Z</time>
      </trkpt>
      <trkpt lat="47.12627" lon="5.60901">
        <ele>229</ele>
        <time>2020-01-27T10:01:39Z</time>
      </trkpt>
      <trkpt lat="47.12619" lon="5.60883">
        <ele>229</ele>
        <time>2020-01-27T10:01:51Z</time>
      </trkpt>
      <trkpt lat="47.12595" lon="5.60836">
        <ele>227</ele>
        <time>2020-01-27T10:02:22Z</time>
      </trkpt>
      <trkpt lat="47.12583" lon="5.60811">
        <ele>226</ele>
        <time>2020-01-27T10:02:37Z</time>
      </trkpt>
      <trkpt lat="47.12578" lon="5.60799">
        <ele>226</ele>
        <time>2020-01-27T10:02:45Z</time>
      </trkpt>
      <trkpt lat="47.12573" lon="5.60784">
        <ele>226</ele>
        <time>2020-01-27T10:02:53Z</time>
      </trkpt>
      <trkpt lat="47.12567" lon="5.60764">
        <ele>226</ele>
        <time>2020-01-27T10:03:05Z</time>
      </trkpt>
      <trkpt lat="47.12564" lon="5.6075">
        <ele>225</ele>
        <time>2020-01-27T10:03:13Z</time>
      </trkpt>
      <trkpt lat="47.12563" lon="5.60742">
        <ele>225</ele>
        <time>2020-01-27T10:03:17Z</time>
      </trkpt>
      <trkpt lat="47.12561" lon="5.60735">
        <ele>226</ele>
        <time>2020-01-27T10:03:21Z</time>
      </trkpt>
      <trkpt lat="47.12557" lon="5.60721">
        <ele>225</ele>
        <time>2020-01-27T10:03:29Z</time>
      </trkpt>
      <trkpt lat="47.12555" lon="5.60716">
        <ele>225</ele>
        <time>2020-01-27T10:03:33Z</time>
      </trkpt>
      <trkpt lat="47.12553" lon="5.60708">
        <ele>225</ele>
        <time>2020-01-27T10:03:37Z</time>
      </trkpt>
      <trkpt lat="47.1255" lon="5.60694">
        <ele>226</ele>
        <time>2020-01-27T10:03:45Z</time>
      </trkpt>
      <trkpt lat="47.12543" lon="5.60677">
        <ele>226</ele>
        <time>2020-01-27T10:03:57Z</time>
      </trkpt>
      <trkpt lat="47.12543" lon="5.6067">
        <ele>226</ele>
        <time>2020-01-27T10:04:01Z</time>
      </trkpt>
      <trkpt lat="47.12542" lon="5.60662">
        <ele>225</ele>
        <time>2020-01-27T10:04:05Z</time>
      </trkpt>
      <trkpt lat="47.12537" lon="5.60647">
        <ele>224</ele>
        <time>2020-01-27T10:04:13Z</time>
      </trkpt>
      <trkpt lat="47.12536" lon="5.60639">
        <ele>225</ele>
        <time>2020-01-27T10:04:17Z</time>
      </trkpt>
      <trkpt lat="47.12535" lon="5.60632">
        <ele>225</ele>
        <time>2020-01-27T10:04:21Z</time>
      </trkpt>
      <trkpt lat="47.12533" lon="5.60625">
        <ele>225</ele>
        <time>2020-01-27T10:04:25Z</time>
      </trkpt>
      <trkpt lat="47.12531" lon="5.60617">
        <ele>225</ele>
        <time>2020-01-27T10:04:29Z</time>
      </trkpt>
      <trkpt lat="47.12529" lon="5.60609">
        <ele>225</ele>
        <time>2020-01-27T10:04:33Z</time>
      </trkpt>
      <trkpt lat="47.12527" lon="5.60593">
        <ele>225</ele>
        <time>2020-01-27T10:04:42Z</time>
      </trkpt>
      <trkpt lat="47.12525" lon="5.60579">
        <ele>224</ele>
        <time>2020-01-27T10:04:50Z</time>
      </trkpt>
      <trkpt lat="47.12525" lon="5.6057">
        <ele>224</ele>
        <time>2020-01-27T10:04:56Z</time>
      </trkpt>
      <trkpt lat="47.12526" lon="5.60556">
        <ele>222</ele>
        <time>2020-01-27T10:05:03Z</time>
      </trkpt>
      <trkpt lat="47.12524" lon="5.60549">
        <ele>222</ele>
        <time>2020-01-27T10:05:06Z</time>
      </trkpt>
      <trkpt lat="47.12524" lon="5.60541">
        <ele>221</ele>
        <time>2020-01-27T10:05:10Z</time>
      </trkpt>
      <trkpt lat="47.12522" lon="5.60534">
        <ele>220</ele>
        <time>2020-01-27T10:05:14Z</time>
      </trkpt>
      <trkpt lat="47.12519" lon="5.60527">
        <ele>220</ele>
        <time>2020-01-27T10:05:18Z</time>
      </trkpt>
      <trkpt lat="47.12518" lon="5.6052">
        <ele>220</ele>
        <time>2020-01-27T10:05:22Z</time>
      </trkpt>
      <trkpt lat="47.12518" lon="5.60512">
        <ele>221</ele>
        <time>2020-01-27T10:05:26Z</time>
      </trkpt>
      <trkpt lat="47.12517" lon="5.60505">
        <ele>219</ele>
        <time>2020-01-27T10:05:30Z</time>
      </trkpt>
      <trkpt lat="47.12511" lon="5.60493">
        <ele>219</ele>
        <time>2020-01-27T10:05:38Z</time>
      </trkpt>
      <trkpt lat="47.1251" lon="5.60486">
        <ele>218</ele>
        <time>2020-01-27T10:05:42Z</time>
      </trkpt>
      <trkpt lat="47.12509" lon="5.6048">
        <ele>217</ele>
        <time>2020-01-27T10:05:46Z</time>
      </trkpt>
      <trkpt lat="47.1251" lon="5.60473">
        <ele>217</ele>
        <time>2020-01-27T10:05:51Z</time>
      </trkpt>
      <trkpt lat="47.12505" lon="5.60469">
        <ele>214</ele>
        <time>2020-01-27T10:06:23Z</time>
      </trkpt>
      <trkpt lat="47.125" lon="5.60472">
        <ele>216</ele>
        <time>2020-01-27T10:06:57Z</time>
      </trkpt>
      <trkpt lat="47.12494" lon="5.60473">
        <ele>215</ele>
        <time>2020-01-27T10:07:00Z</time>
      </trkpt>
      <trkpt lat="47.1249" lon="5.60475">
        <ele>213</ele>
        <time>2020-01-27T10:07:04Z</time>
      </trkpt>
      <trkpt lat="47.12471" lon="5.60485">
        <ele>213</ele>
        <time>2020-01-27T10:07:19Z</time>
      </trkpt>
      <trkpt lat="47.12466" lon="5.60488">
        <ele>213</ele>
        <time>2020-01-27T10:07:23Z</time>
      </trkpt>
      <trkpt lat="47.12457" lon="5.60493">
        <ele>214</ele>
        <time>2020-01-27T10:07:31Z</time>
      </trkpt>
      <trkpt lat="47.12451" lon="5.60494">
        <ele>214</ele>
        <time>2020-01-27T10:07:35Z</time>
      </trkpt>
      <trkpt lat="47.12441" lon="5.60495">
        <ele>214</ele>
        <time>2020-01-27T10:07:45Z</time>
      </trkpt>
      <trkpt lat="47.12436" lon="5.60496">
        <ele>214</ele>
        <time>2020-01-27T10:07:50Z</time>
      </trkpt>
      <trkpt lat="47.12431" lon="5.60494">
        <ele>214</ele>
        <time>2020-01-27T10:07:54Z</time>
      </trkpt>
      <trkpt lat="47.12427" lon="5.60488">
        <ele>214</ele>
        <time>2020-01-27T10:07:58Z</time>
      </trkpt>
      <trkpt lat="47.12422" lon="5.60473">
        <ele>213</ele>
        <time>2020-01-27T10:08:06Z</time>
      </trkpt>
      <trkpt lat="47.12417" lon="5.6046">
        <ele>214</ele>
        <time>2020-01-27T10:08:14Z</time>
      </trkpt>
      <trkpt lat="47.1241" lon="5.60439">
        <ele>213</ele>
        <time>2020-01-27T10:08:26Z</time>
      </trkpt>
      <trkpt lat="47.12406" lon="5.60427">
        <ele>213</ele>
        <time>2020-01-27T10:08:34Z</time>
      </trkpt>
      <trkpt lat="47.12397" lon="5.60412">
        <ele>214</ele>
        <time>2020-01-27T10:08:45Z</time>
      </trkpt>
      <trkpt lat="47.12394" lon="5.60406">
        <ele>214</ele>
        <time>2020-01-27T10:08:50Z</time>
      </trkpt>
      <trkpt lat="47.12389" lon="5.60392">
        <ele>212</ele>
        <time>2020-01-27T10:09:00Z</time>
      </trkpt>
      <trkpt lat="47.12383" lon="5.6037">
        <ele>212</ele>
        <time>2020-01-27T10:09:12Z</time>
      </trkpt>
      <trkpt lat="47.1238" lon="5.60362">
        <ele>213</ele>
        <time>2020-01-27T10:09:16Z</time>
      </trkpt>
      <trkpt lat="47.12378" lon="5.60355">
        <ele>213</ele>
        <time>2020-01-27T10:09:20Z</time>
      </trkpt>
      <trkpt lat="47.12376" lon="5.60349">
        <ele>213</ele>
        <time>2020-01-27T10:09:24Z</time>
      </trkpt>
      <trkpt lat="47.12375" lon="5.60332">
        <ele>213</ele>
        <time>2020-01-27T10:09:33Z</time>
      </trkpt>
      <trkpt lat="47.12376" lon="5.60323">
        <ele>213</ele>
        <time>2020-01-27T10:09:37Z</time>
      </trkpt>
      <trkpt lat="47.12377" lon="5.60316">
        <ele>212</ele>
        <time>2020-01-27T10:09:41Z</time>
      </trkpt>
      <trkpt lat="47.12382" lon="5.603">
        <ele>212</ele>
        <time>2020-01-27T10:09:53Z</time>
      </trkpt>
      <trkpt lat="47.12386" lon="5.60293">
        <ele>212</ele>
        <time>2020-01-27T10:09:58Z</time>
      </trkpt>
      <trkpt lat="47.12389" lon="5.60289">
        <ele>212</ele>
        <time>2020-01-27T10:10:02Z</time>
      </trkpt>
      <trkpt lat="47.12394" lon="5.60286">
        <ele>212</ele>
        <time>2020-01-27T10:10:06Z</time>
      </trkpt>
      <trkpt lat="47.12397" lon="5.60281">
        <ele>212</ele>
        <time>2020-01-27T10:10:11Z</time>
      </trkpt>
      <trkpt lat="47.12427" lon="5.60265">
        <ele>212</ele>
        <time>2020-01-27T10:10:33Z</time>
      </trkpt>
      <trkpt lat="47.12432" lon="5.6026">
        <ele>211</ele>
        <time>2020-01-27T10:10:37Z</time>
      </trkpt>
      <trkpt lat="47.12436" lon="5.60256">
        <ele>212</ele>
        <time>2020-01-27T10:10:42Z</time>
      </trkpt>
      <trkpt lat="47.1244" lon="5.60252">
        <ele>213</ele>
        <time>2020-01-27T10:10:46Z</time>
      </trkpt>
      <trkpt lat="47.12449" lon="5.60244">
        <ele>212</ele>
        <time>2020-01-27T10:10:55Z</time>
      </trkpt>
      <trkpt lat="47.12452" lon="5.60239">
        <ele>213</ele>
        <time>2020-01-27T10:11:00Z</time>
      </trkpt>
      <trkpt lat="47.12455" lon="5.60234">
        <ele>213</ele>
        <time>2020-01-27T10:11:04Z</time>
      </trkpt>
      <trkpt lat="47.12458" lon="5.60229">
        <ele>213</ele>
        <time>2020-01-27T10:11:09Z</time>
      </trkpt>
      <trkpt lat="47.12462" lon="5.60199">
        <ele>216</ele>
        <time>2020-01-27T10:11:28Z</time>
      </trkpt>
      <trkpt lat="47.12459" lon="5.60172">
        <ele>218</ele>
        <time>2020-01-27T10:11:45Z</time>
      </trkpt>
      <trkpt lat="47.12459" lon="5.60164">
        <ele>219</ele>
        <time>2020-01-27T10:11:49Z</time>
      </trkpt>
      <trkpt lat="47.12457" lon="5.60157">
        <ele>220</ele>
        <time>2020-01-27T10:11:53Z</time>
      </trkpt>
      <trkpt lat="47.12454" lon="5.60133">
        <ele>221</ele>
        <time>2020-01-27T10:12:06Z</time>
      </trkpt>
      <trkpt lat="47.12452" lon="5.60126">
        <ele>221</ele>
        <time>2020-01-27T10:12:10Z</time>
      </trkpt>
      <trkpt lat="47.12452" lon="5.60119">
        <ele>221</ele>
        <time>2020-01-27T10:12:14Z</time>
      </trkpt>
      <trkpt lat="47.1245" lon="5.60111">
        <ele>222</ele>
        <time>2020-01-27T10:12:18Z</time>
      </trkpt>
      <trkpt lat="47.12448" lon="5.60105">
        <ele>222</ele>
        <time>2020-01-27T10:12:22Z</time>
      </trkpt>
      <trkpt lat="47.12449" lon="5.60091">
        <ele>224</ele>
        <time>2020-01-27T10:12:29Z</time>
      </trkpt>
      <trkpt lat="47.1245" lon="5.60075">
        <ele>224</ele>
        <time>2020-01-27T10:12:38Z</time>
      </trkpt>
      <trkpt lat="47.12452" lon="5.60067">
        <ele>225</ele>
        <time>2020-01-27T10:12:42Z</time>
      </trkpt>
      <trkpt lat="47.12452" lon="5.60056">
        <ele>225</ele>
        <time>2020-01-27T10:12:49Z</time>
      </trkpt>
      <trkpt lat="47.12453" lon="5.60019">
        <ele>229</ele>
        <time>2020-01-27T10:13:09Z</time>
      </trkpt>
      <trkpt lat="47.12454" lon="5.60012">
        <ele>229</ele>
        <time>2020-01-27T10:13:14Z</time>
      </trkpt>
      <trkpt lat="47.12454" lon="5.60005">
        <ele>230</ele>
        <time>2020-01-27T10:13:18Z</time>
      </trkpt>
      <trkpt lat="47.12454" lon="5.59998">
        <ele>231</ele>
        <time>2020-01-27T10:13:22Z</time>
      </trkpt>
      <trkpt lat="47.12454" lon="5.5999">
        <ele>232</ele>
        <time>2020-01-27T10:13:26Z</time>
      </trkpt>
      <trkpt lat="47.12453" lon="5.59954">
        <ele>232</ele>
        <time>2020-01-27T10:13:45Z</time>
      </trkpt>
      <trkpt lat="47.12452" lon="5.59946">
        <ele>232</ele>
        <time>2020-01-27T10:13:49Z</time>
      </trkpt>
      <trkpt lat="47.12449" lon="5.59939">
        <ele>232</ele>
        <time>2020-01-27T10:13:53Z</time>
      </trkpt>
      <trkpt lat="47.12441" lon="5.59919">
        <ele>232</ele>
        <time>2020-01-27T10:14:05Z</time>
      </trkpt>
      <trkpt lat="47.12439" lon="5.59911">
        <ele>232</ele>
        <time>2020-01-27T10:14:10Z</time>
      </trkpt>
      <trkpt lat="47.12436" lon="5.59904">
        <ele>232</ele>
        <time>2020-01-27T10:14:14Z</time>
      </trkpt>
      <trkpt lat="47.12435" lon="5.59896">
        <ele>232</ele>
        <time>2020-01-27T10:14:18Z</time>
      </trkpt>
      <trkpt lat="47.12433" lon="5.59889">
        <ele>232</ele>
        <time>2020-01-27T10:14:21Z</time>
      </trkpt>
      <trkpt lat="47.12432" lon="5.59881">
        <ele>232</ele>
        <time>2020-01-27T10:14:24Z</time>
      </trkpt>
      <trkpt lat="47.12432" lon="5.59874">
        <ele>233</ele>
        <time>2020-01-27T10:14:28Z</time>
      </trkpt>
      <trkpt lat="47.12432" lon="5.59868">
        <ele>232</ele>
        <time>2020-01-27T10:14:32Z</time>
      </trkpt>
      <trkpt lat="47.12432" lon="5.59861">
        <ele>233</ele>
        <time>2020-01-27T10:14:36Z</time>
      </trkpt>
      <trkpt lat="47.1243" lon="5.59853">
        <ele>233</ele>
        <time>2020-01-27T10:14:40Z</time>
      </trkpt>
      <trkpt lat="47.12428" lon="5.59847">
        <ele>233</ele>
        <time>2020-01-27T10:14:43Z</time>
      </trkpt>
      <trkpt lat="47.12427" lon="5.59839">
        <ele>233</ele>
        <time>2020-01-27T10:14:48Z</time>
      </trkpt>
      <trkpt lat="47.12426" lon="5.59832">
        <ele>234</ele>
        <time>2020-01-27T10:14:52Z</time>
      </trkpt>
      <trkpt lat="47.12424" lon="5.59825">
        <ele>234</ele>
        <time>2020-01-27T10:14:56Z</time>
      </trkpt>
      <trkpt lat="47.12421" lon="5.59796">
        <ele>235</ele>
        <time>2020-01-27T10:15:13Z</time>
      </trkpt>
      <trkpt lat="47.12421" lon="5.59789">
        <ele>235</ele>
        <time>2020-01-27T10:15:17Z</time>
      </trkpt>
      <trkpt lat="47.1242" lon="5.59782">
        <ele>235</ele>
        <time>2020-01-27T10:15:21Z</time>
      </trkpt>
      <trkpt lat="47.12418" lon="5.59776">
        <ele>235</ele>
        <time>2020-01-27T10:15:26Z</time>
      </trkpt>
      <trkpt lat="47.12416" lon="5.59768">
        <ele>234</ele>
        <time>2020-01-27T10:15:33Z</time>
      </trkpt>
      <trkpt lat="47.12416" lon="5.5976">
        <ele>234</ele>
        <time>2020-01-27T10:15:38Z</time>
      </trkpt>
      <trkpt lat="47.12415" lon="5.59753">
        <ele>234</ele>
        <time>2020-01-27T10:15:42Z</time>
      </trkpt>
      <trkpt lat="47.12416" lon="5.59745">
        <ele>235</ele>
        <time>2020-01-27T10:15:46Z</time>
      </trkpt>
      <trkpt lat="47.12414" lon="5.59739">
        <ele>234</ele>
        <time>2020-01-27T10:15:50Z</time>
      </trkpt>
      <trkpt lat="47.12411" lon="5.59728">
        <ele>234</ele>
        <time>2020-01-27T10:15:57Z</time>
      </trkpt>
      <trkpt lat="47.12408" lon="5.59705">
        <ele>235</ele>
        <time>2020-01-27T10:16:09Z</time>
      </trkpt>
      <trkpt lat="47.12406" lon="5.59697">
        <ele>235</ele>
        <time>2020-01-27T10:16:13Z</time>
      </trkpt>
      <trkpt lat="47.12404" lon="5.59683">
        <ele>236</ele>
        <time>2020-01-27T10:16:21Z</time>
      </trkpt>
      <trkpt lat="47.12403" lon="5.59676">
        <ele>237</ele>
        <time>2020-01-27T10:16:24Z</time>
      </trkpt>
      <trkpt lat="47.12402" lon="5.59669">
        <ele>238</ele>
        <time>2020-01-27T10:16:28Z</time>
      </trkpt>
      <trkpt lat="47.12402" lon="5.59662">
        <ele>238</ele>
        <time>2020-01-27T10:16:32Z</time>
      </trkpt>
      <trkpt lat="47.12399" lon="5.59647">
        <ele>238</ele>
        <time>2020-01-27T10:16:41Z</time>
      </trkpt>
      <trkpt lat="47.12396" lon="5.5964">
        <ele>238</ele>
        <time>2020-01-27T10:16:45Z</time>
      </trkpt>
      <trkpt lat="47.12394" lon="5.59626">
        <ele>238</ele>
        <time>2020-01-27T10:16:53Z</time>
      </trkpt>
      <trkpt lat="47.12393" lon="5.59619">
        <ele>239</ele>
        <time>2020-01-27T10:16:56Z</time>
      </trkpt>
      <trkpt lat="47.1239" lon="5.59612">
        <ele>239</ele>
        <time>2020-01-27T10:17:00Z</time>
      </trkpt>
      <trkpt lat="47.12388" lon="5.59604">
        <ele>239</ele>
        <time>2020-01-27T10:17:04Z</time>
      </trkpt>
      <trkpt lat="47.12388" lon="5.59595">
        <ele>240</ele>
        <time>2020-01-27T10:17:08Z</time>
      </trkpt>
      <trkpt lat="47.12387" lon="5.59588">
        <ele>240</ele>
        <time>2020-01-27T10:17:11Z</time>
      </trkpt>
      <trkpt lat="47.12385" lon="5.59581">
        <ele>239</ele>
        <time>2020-01-27T10:17:15Z</time>
      </trkpt>
      <trkpt lat="47.12381" lon="5.59575">
        <ele>238</ele>
        <time>2020-01-27T10:17:18Z</time>
      </trkpt>
      <trkpt lat="47.12379" lon="5.59569">
        <ele>238</ele>
        <time>2020-01-27T10:17:23Z</time>
      </trkpt>
      <trkpt lat="47.12378" lon="5.59562">
        <ele>238</ele>
        <time>2020-01-27T10:17:27Z</time>
      </trkpt>
      <trkpt lat="47.12376" lon="5.59556">
        <ele>238</ele>
        <time>2020-01-27T10:17:31Z</time>
      </trkpt>
      <trkpt lat="47.12374" lon="5.59548">
        <ele>238</ele>
        <time>2020-01-27T10:17:36Z</time>
      </trkpt>
      <trkpt lat="47.12372" lon="5.59541">
        <ele>237</ele>
        <time>2020-01-27T10:17:40Z</time>
      </trkpt>
      <trkpt lat="47.1237" lon="5.59534">
        <ele>238</ele>
        <time>2020-01-27T10:17:44Z</time>
      </trkpt>
      <trkpt lat="47.1237" lon="5.59527">
        <ele>237</ele>
        <time>2020-01-27T10:17:49Z</time>
      </trkpt>
      <trkpt lat="47.12369" lon="5.59509">
        <ele>239</ele>
        <time>2020-01-27T10:18:00Z</time>
      </trkpt>
      <trkpt lat="47.12366" lon="5.59503">
        <ele>239</ele>
        <time>2020-01-27T10:18:04Z</time>
      </trkpt>
      <trkpt lat="47.12362" lon="5.59496">
        <ele>240</ele>
        <time>2020-01-27T10:18:10Z</time>
      </trkpt>
      <trkpt lat="47.12361" lon="5.5948">
        <ele>240</ele>
        <time>2020-01-27T10:18:20Z</time>
      </trkpt>
      <trkpt lat="47.12357" lon="5.59465">
        <ele>241</ele>
        <time>2020-01-27T10:18:27Z</time>
      </trkpt>
      <trkpt lat="47.12353" lon="5.59451">
        <ele>240</ele>
        <time>2020-01-27T10:18:34Z</time>
      </trkpt>
      <trkpt lat="47.1235" lon="5.59443">
        <ele>239</ele>
        <time>2020-01-27T10:18:38Z</time>
      </trkpt>
      <trkpt lat="47.12346" lon="5.59427">
        <ele>238</ele>
        <time>2020-01-27T10:18:50Z</time>
      </trkpt>
      <trkpt lat="47.12343" lon="5.59413">
        <ele>238</ele>
        <time>2020-01-27T10:18:58Z</time>
      </trkpt>
      <trkpt lat="47.12341" lon="5.59404">
        <ele>237</ele>
        <time>2020-01-27T10:19:03Z</time>
      </trkpt>
      <trkpt lat="47.1234" lon="5.59396">
        <ele>237</ele>
        <time>2020-01-27T10:19:07Z</time>
      </trkpt>
      <trkpt lat="47.1233" lon="5.59351">
        <ele>239</ele>
        <time>2020-01-27T10:19:27Z</time>
      </trkpt>
      <trkpt lat="47.12324" lon="5.59331">
        <ele>238</ele>
        <time>2020-01-27T10:19:38Z</time>
      </trkpt>
      <trkpt lat="47.12316" lon="5.59287">
        <ele>239</ele>
        <time>2020-01-27T10:20:00Z</time>
      </trkpt>
      <trkpt lat="47.12316" lon="5.59279">
        <ele>239</ele>
        <time>2020-01-27T10:20:04Z</time>
      </trkpt>
      <trkpt lat="47.12317" lon="5.59264">
        <ele>239</ele>
        <time>2020-01-27T10:20:12Z</time>
      </trkpt>
      <trkpt lat="47.12315" lon="5.59258">
        <ele>239</ele>
        <time>2020-01-27T10:20:17Z</time>
      </trkpt>
      <trkpt lat="47.12313" lon="5.59251">
        <ele>239</ele>
        <time>2020-01-27T10:20:21Z</time>
      </trkpt>
      <trkpt lat="47.12312" lon="5.59242">
        <ele>239</ele>
        <time>2020-01-27T10:20:25Z</time>
      </trkpt>
      <trkpt lat="47.1231" lon="5.59228">
        <ele>239</ele>
        <time>2020-01-27T10:20:34Z</time>
      </trkpt>
      <trkpt lat="47.12312" lon="5.59221">
        <ele>240</ele>
        <time>2020-01-27T10:20:39Z</time>
      </trkpt>
      <trkpt lat="47.12312" lon="5.59214">
        <ele>240</ele>
        <time>2020-01-27T10:20:44Z</time>
      </trkpt>
      <trkpt lat="47.1231" lon="5.59207">
        <ele>240</ele>
        <time>2020-01-27T10:20:48Z</time>
      </trkpt>
      <trkpt lat="47.12311" lon="5.59192">
        <ele>241</ele>
        <time>2020-01-27T10:20:55Z</time>
      </trkpt>
      <trkpt lat="47.1231" lon="5.59183">
        <ele>241</ele>
        <time>2020-01-27T10:20:59Z</time>
      </trkpt>
      <trkpt lat="47.1231" lon="5.59169">
        <ele>243</ele>
        <time>2020-01-27T10:21:07Z</time>
      </trkpt>
      <trkpt lat="47.12313" lon="5.59154">
        <ele>243</ele>
        <time>2020-01-27T10:21:14Z</time>
      </trkpt>
      <trkpt lat="47.12316" lon="5.59148">
        <ele>243</ele>
        <time>2020-01-27T10:21:17Z</time>
      </trkpt>
      <trkpt lat="47.12315" lon="5.5914">
        <ele>243</ele>
        <time>2020-01-27T10:21:20Z</time>
      </trkpt>
      <trkpt lat="47.12314" lon="5.59133">
        <ele>242</ele>
        <time>2020-01-27T10:21:23Z</time>
      </trkpt>
      <trkpt lat="47.12313" lon="5.59125">
        <ele>242</ele>
        <time>2020-01-27T10:21:28Z</time>
      </trkpt>
      <trkpt lat="47.12312" lon="5.59117">
        <ele>242</ele>
        <time>2020-01-27T10:21:33Z</time>
      </trkpt>
      <trkpt lat="47.1231" lon="5.59102">
        <ele>242</ele>
        <time>2020-01-27T10:21:42Z</time>
      </trkpt>
      <trkpt lat="47.12311" lon="5.59094">
        <ele>242</ele>
        <time>2020-01-27T10:21:46Z</time>
      </trkpt>
      <trkpt lat="47.12314" lon="5.59087">
        <ele>242</ele>
        <time>2020-01-27T10:21:50Z</time>
      </trkpt>
      <trkpt lat="47.12314" lon="5.59069">
        <ele>240</ele>
        <time>2020-01-27T10:22:02Z</time>
      </trkpt>
      <trkpt lat="47.12308" lon="5.59056">
        <ele>239</ele>
        <time>2020-01-27T10:22:09Z</time>
      </trkpt>
      <trkpt lat="47.12305" lon="5.59049">
        <ele>239</ele>
        <time>2020-01-27T10:22:12Z</time>
      </trkpt>
      <trkpt lat="47.12303" lon="5.59044">
        <ele>238</ele>
        <time>2020-01-27T10:22:15Z</time>
      </trkpt>
      <trkpt lat="47.12298" lon="5.59028">
        <ele>237</ele>
        <time>2020-01-27T10:22:26Z</time>
      </trkpt>
      <trkpt lat="47.12297" lon="5.5902">
        <ele>237</ele>
        <time>2020-01-27T10:22:30Z</time>
      </trkpt>
      <trkpt lat="47.12291" lon="5.59008">
        <ele>237</ele>
        <time>2020-01-27T10:22:36Z</time>
      </trkpt>
      <trkpt lat="47.12286" lon="5.58997">
        <ele>237</ele>
        <time>2020-01-27T10:22:42Z</time>
      </trkpt>
      <trkpt lat="47.12282" lon="5.58991">
        <ele>237</ele>
        <time>2020-01-27T10:22:46Z</time>
      </trkpt>
      <trkpt lat="47.12274" lon="5.58971">
        <ele>236</ele>
        <time>2020-01-27T10:22:58Z</time>
      </trkpt>
      <trkpt lat="47.1227" lon="5.58965">
        <ele>236</ele>
        <time>2020-01-27T10:23:02Z</time>
      </trkpt>
      <trkpt lat="47.12263" lon="5.58953">
        <ele>235</ele>
        <time>2020-01-27T10:23:09Z</time>
      </trkpt>
      <trkpt lat="47.1226" lon="5.58948">
        <ele>235</ele>
        <time>2020-01-27T10:23:13Z</time>
      </trkpt>
      <trkpt lat="47.12241" lon="5.58914">
        <ele>235</ele>
        <time>2020-01-27T10:23:38Z</time>
      </trkpt>
      <trkpt lat="47.12237" lon="5.58909">
        <ele>235</ele>
        <time>2020-01-27T10:23:43Z</time>
      </trkpt>
      <trkpt lat="47.12233" lon="5.58904">
        <ele>235</ele>
        <time>2020-01-27T10:23:49Z</time>
      </trkpt>
      <trkpt lat="47.1223" lon="5.58899">
        <ele>235</ele>
        <time>2020-01-27T10:23:53Z</time>
      </trkpt>
      <trkpt lat="47.12222" lon="5.58888">
        <ele>234</ele>
        <time>2020-01-27T10:24:02Z</time>
      </trkpt>
      <trkpt lat="47.12218" lon="5.58882">
        <ele>234</ele>
        <time>2020-01-27T10:24:07Z</time>
      </trkpt>
      <trkpt lat="47.12211" lon="5.5887">
        <ele>232</ele>
        <time>2020-01-27T10:24:15Z</time>
      </trkpt>
      <trkpt lat="47.12209" lon="5.58863">
        <ele>232</ele>
        <time>2020-01-27T10:24:19Z</time>
      </trkpt>
      <trkpt lat="47.12207" lon="5.58842">
        <ele>230</ele>
        <time>2020-01-27T10:24:31Z</time>
      </trkpt>
      <trkpt lat="47.12207" lon="5.58797">
        <ele>227</ele>
        <time>2020-01-27T10:24:59Z</time>
      </trkpt>
      <trkpt lat="47.12206" lon="5.58791">
        <ele>226</ele>
        <time>2020-01-27T10:25:03Z</time>
      </trkpt>
      <trkpt lat="47.12202" lon="5.5877">
        <ele>224</ele>
        <time>2020-01-27T10:25:15Z</time>
      </trkpt>
      <trkpt lat="47.122" lon="5.58764">
        <ele>223</ele>
        <time>2020-01-27T10:25:19Z</time>
      </trkpt>
      <trkpt lat="47.12199" lon="5.58757">
        <ele>223</ele>
        <time>2020-01-27T10:25:23Z</time>
      </trkpt>
      <trkpt lat="47.12197" lon="5.58751">
        <ele>222</ele>
        <time>2020-01-27T10:25:27Z</time>
      </trkpt>
      <trkpt lat="47.12196" lon="5.58744">
        <ele>222</ele>
        <time>2020-01-27T10:25:31Z</time>
      </trkpt>
      <trkpt lat="47.12196" lon="5.58736">
        <ele>223</ele>
        <time>2020-01-27T10:25:35Z</time>
      </trkpt>
      <trkpt lat="47.12197" lon="5.58728">
        <ele>222</ele>
        <time>2020-01-27T10:25:39Z</time>
      </trkpt>
      <trkpt lat="47.12205" lon="5.58717">
        <ele>221</ele>
        <time>2020-01-27T10:25:48Z</time>
      </trkpt>
      <trkpt lat="47.12213" lon="5.58708">
        <ele>223</ele>
        <time>2020-01-27T10:25:57Z</time>
      </trkpt>
      <trkpt lat="47.12217" lon="5.58705">
        <ele>222</ele>
        <time>2020-01-27T10:26:01Z</time>
      </trkpt>
      <trkpt lat="47.12223" lon="5.58695">
        <ele>222</ele>
        <time>2020-01-27T10:26:09Z</time>
      </trkpt>
      <trkpt lat="47.12232" lon="5.58688">
        <ele>220</ele>
        <time>2020-01-27T10:26:17Z</time>
      </trkpt>
      <trkpt lat="47.12236" lon="5.58685">
        <ele>220</ele>
        <time>2020-01-27T10:26:21Z</time>
      </trkpt>
      <trkpt lat="47.12241" lon="5.58685">
        <ele>221</ele>
        <time>2020-01-27T10:26:26Z</time>
      </trkpt>
      <trkpt lat="47.12246" lon="5.58682">
        <ele>221</ele>
        <time>2020-01-27T10:26:30Z</time>
      </trkpt>
      <trkpt lat="47.12264" lon="5.58669">
        <ele>220</ele>
        <time>2020-01-27T10:26:47Z</time>
      </trkpt>
      <trkpt lat="47.12271" lon="5.58659">
        <ele>219</ele>
        <time>2020-01-27T10:26:56Z</time>
      </trkpt>
      <trkpt lat="47.12275" lon="5.58656">
        <ele>219</ele>
        <time>2020-01-27T10:27:00Z</time>
      </trkpt>
      <trkpt lat="47.1228" lon="5.58653">
        <ele>218</ele>
        <time>2020-01-27T10:27:04Z</time>
      </trkpt>
      <trkpt lat="47.12295" lon="5.58649">
        <ele>218</ele>
        <time>2020-01-27T10:27:16Z</time>
      </trkpt>
      <trkpt lat="47.123" lon="5.5865">
        <ele>217</ele>
        <time>2020-01-27T10:27:20Z</time>
      </trkpt>
      <trkpt lat="47.12311" lon="5.58651">
        <ele>218</ele>
        <time>2020-01-27T10:27:28Z</time>
      </trkpt>
      <trkpt lat="47.1232" lon="5.58653">
        <ele>217</ele>
        <time>2020-01-27T10:27:36Z</time>
      </trkpt>
      <trkpt lat="47.12325" lon="5.58653">
        <ele>217</ele>
        <time>2020-01-27T10:27:40Z</time>
      </trkpt>
      <trkpt lat="47.12346" lon="5.58656">
        <ele>216</ele>
        <time>2020-01-27T10:27:57Z</time>
      </trkpt>
      <trkpt lat="47.12356" lon="5.58655">
        <ele>214</ele>
        <time>2020-01-27T10:28:05Z</time>
      </trkpt>
      <trkpt lat="47.12371" lon="5.58658">
        <ele>214</ele>
        <time>2020-01-27T10:28:17Z</time>
      </trkpt>
      <trkpt lat="47.12375" lon="5.58659">
        <ele>214</ele>
        <time>2020-01-27T10:28:21Z</time>
      </trkpt>
      <trkpt lat="47.12381" lon="5.5866">
        <ele>214</ele>
        <time>2020-01-27T10:28:25Z</time>
      </trkpt>
      <trkpt lat="47.12385" lon="5.5866">
        <ele>214</ele>
        <time>2020-01-27T10:28:28Z</time>
      </trkpt>
      <trkpt lat="47.12412" lon="5.5866">
        <ele>213</ele>
        <time>2020-01-27T10:28:48Z</time>
      </trkpt>
      <trkpt lat="47.12416" lon="5.5866">
        <ele>213</ele>
        <time>2020-01-27T10:28:52Z</time>
      </trkpt>
      <trkpt lat="47.12421" lon="5.58659">
        <ele>213</ele>
        <time>2020-01-27T10:28:56Z</time>
      </trkpt>
      <trkpt lat="47.1243" lon="5.58654">
        <ele>212</ele>
        <time>2020-01-27T10:29:04Z</time>
      </trkpt>
      <trkpt lat="47.12439" lon="5.58646">
        <ele>212</ele>
        <time>2020-01-27T10:29:12Z</time>
      </trkpt>
      <trkpt lat="47.12446" lon="5.58635">
        <ele>210</ele>
        <time>2020-01-27T10:29:21Z</time>
      </trkpt>
      <trkpt lat="47.12448" lon="5.58629">
        <ele>210</ele>
        <time>2020-01-27T10:29:25Z</time>
      </trkpt>
      <trkpt lat="47.12452" lon="5.58625">
        <ele>210</ele>
        <time>2020-01-27T10:29:29Z</time>
      </trkpt>
      <trkpt lat="47.12456" lon="5.58621">
        <ele>209</ele>
        <time>2020-01-27T10:29:33Z</time>
      </trkpt>
      <trkpt lat="47.12462" lon="5.58611">
        <ele>209</ele>
        <time>2020-01-27T10:29:41Z</time>
      </trkpt>
      <trkpt lat="47.12469" lon="5.586">
        <ele>208</ele>
        <time>2020-01-27T10:29:49Z</time>
      </trkpt>
      <trkpt lat="47.12482" lon="5.58578">
        <ele>209</ele>
        <time>2020-01-27T10:30:05Z</time>
      </trkpt>
      <trkpt lat="47.12485" lon="5.58572">
        <ele>208</ele>
        <time>2020-01-27T10:30:09Z</time>
      </trkpt>
      <trkpt lat="47.12487" lon="5.58566">
        <ele>208</ele>
        <time>2020-01-27T10:30:14Z</time>
      </trkpt>
      <trkpt lat="47.12494" lon="5.58555">
        <ele>209</ele>
        <time>2020-01-27T10:30:23Z</time>
      </trkpt>
      <trkpt lat="47.12498" lon="5.5855">
        <ele>209</ele>
        <time>2020-01-27T10:30:27Z</time>
      </trkpt>
      <trkpt lat="47.12504" lon="5.58548">
        <ele>210</ele>
        <time>2020-01-27T10:30:32Z</time>
      </trkpt>
      <trkpt lat="47.12509" lon="5.58549">
        <ele>209</ele>
        <time>2020-01-27T10:30:37Z</time>
      </trkpt>
      <trkpt lat="47.12517" lon="5.58555">
        <ele>209</ele>
        <time>2020-01-27T10:30:46Z</time>
      </trkpt>
    </trkseg>
  </trk>
</gpx>